YYYY MM/DD hh:mm	Temp	Humid	W_dir	W_spd	Barom	T_int	Light	Power	Temp2	P2	Snow	T_mid	T_base	Precip
Year Date  Time 	(F)	(%)	(Deg)	(MPH)	("Hg)	(F)	/1000	(V)	(F)	-	(")	(F)	(F)	(")
2019 02/10 00:00	4.3	90.9	87.3	28.9	29.37	47.4	0.0	13.00	-137.4	0	61.7	8.3	15.1	0	0	0	0	0	26.3	27.8	0.0
2019 02/10 00:15	4.2	90.7	82.0	29.6	29.37	47.2	0.0	12.98	-137.4	0	-997.0	-996.0	14.9	0	0	0	0	0	26.3	27.8	0.0
2019 02/10 00:30	4.2	90.7	78.1	28.1	29.37	47.1	0.0	12.97	-137.4	0	-997.0	-996.0	14.3	0	0	0	0	0	26.3	27.8	0.0
2019 02/10 00:45	4.5	90.7	94.2	22.8	29.38	47.0	-0.3	12.99	-137.5	0	61.5	8.3	14.0	0	0	0	0	0	26.3	27.8	0.0
2019 02/10 01:00	4.5	90.8	80.7	20.1	29.38	46.7	0.0	13.00	-137.5	0	61.5	8.3	13.6	0	0	0	0	0	26.3	27.8	0.0
2019 02/10 01:15	4.6	90.9	100.0	17.3	29.38	46.5	-0.3	12.98	-137.5	0	-997.0	-996.0	14.2	0	0	0	0	0	26.3	27.8	0.0
2019 02/10 01:30	4.8	90.9	106.5	13.7	29.38	46.3	0.0	13.00	-137.5	0	-997.0	-996.0	13.8	0	0	0	0	0	26.3	27.8	0.0
2019 02/10 01:45	4.8	90.9	102.2	15.4	29.38	46.1	0.0	12.98	-137.5	0	61.4	8.3	13.5	0	0	0	0	0	26.3	27.8	0.0
2019 02/10 02:00	4.8	90.9	91.2	16.0	29.38	46.0	0.0	12.97	-137.5	0	61.4	8.3	13.1	0	0	0	0	0	26.3	27.8	0.0
2019 02/10 02:15	4.8	90.9	81.5	11.2	29.39	45.7	0.0	12.97	-137.5	0	-997.0	-996.0	13.4	0	0	0	0	0	26.3	27.8	0.0
2019 02/10 02:30	4.6	90.8	101.0	11.1	29.39	45.6	0.0	12.98	-137.5	0	-997.0	-996.0	14.2	0	0	0	0	0	26.3	27.8	0.0
2019 02/10 02:45	4.5	90.7	104.1	13.7	29.39	45.4	0.0	13.00	-137.5	0	61.2	8.3	14.0	0	0	0	0	0	26.3	27.8	0.0
2019 02/10 03:00	4.5	90.7	77.9	14.0	29.39	45.2	0.0	12.98	-137.5	0	61.2	8.3	14.3	0	0	0	0	0	26.3	27.8	0.0
2019 02/10 03:15	4.5	90.9	73.7	18.6	29.38	45.0	0.0	12.99	-137.5	0	-997.0	-996.0	13.7	0	0	0	0	0	26.3	27.8	0.0
2019 02/10 03:30	4.2	90.5	98.4	14.0	29.38	44.8	-0.3	13.00	-137.5	0	-997.0	-996.0	14.0	0	0	0	0	0	26.3	27.8	0.0
2019 02/10 03:45	4.1	90.6	110.7	10.0	29.38	44.7	0.0	13.00	-137.5	0	60.9	8.3	13.7	0	0	0	0	0	26.3	27.8	0.0
2019 02/10 04:00	4.3	90.7	71.9	7.1	29.38	44.6	0.0	13.01	-137.5	0	60.9	8.3	13.5	0	0	0	0	0	26.3	27.8	0.0
2019 02/10 04:15	4.5	90.6	197.0	5.8	29.38	44.4	6.8	12.97	-137.6	0	-997.0	-996.0	13.5	0	0	0	0	0	26.3	27.8	0.0
2019 02/10 04:30	4.7	90.5	194.9	6.7	29.39	44.3	10.9	12.97	-137.6	0	-997.0	-996.0	13.7	0	0	0	0	0	26.3	27.8	0.0
2019 02/10 04:45	5.0	90.7	210.3	11.2	29.38	44.2	0.0	13.01	-137.5	0	60.9	8.3	13.8	0	0	0	0	0	26.3	27.8	0.0
2019 02/10 05:00	5.4	91.1	204.2	10.2	29.38	44.1	0.0	13.01	-137.6	0	60.9	8.3	13.3	0	0	0	0	0	26.3	27.8	0.0
2019 02/10 05:15	6.1	91.4	228.9	9.8	29.38	43.9	0.3	12.98	-137.6	0	-997.0	-996.0	13.5	0	0	0	0	0	26.3	27.8	0.0
2019 02/10 05:30	6.8	91.6	239.1	13.9	29.38	43.8	0.0	12.96	-137.6	0	-997.0	-996.0	13.8	0	0	0	0	0	26.3	27.8	0.0
2019 02/10 05:45	7.3	91.9	239.3	12.2	29.39	43.7	0.0	12.99	-137.6	0	60.9	8.3	14.1	0	0	0	0	0	26.3	27.8	0.0
2019 02/10 06:00	7.8	92.1	229.2	11.4	29.39	43.6	0.0	12.97	-137.6	0	60.8	8.3	14.6	0	0	0	0	0	26.3	27.8	0.0
2019 02/10 06:15	8.3	92.3	206.6	11.1	29.39	43.4	0.0	12.98	-137.6	0	60.8	8.3	15.3	0	0	0	0	0	26.3	27.8	0.0
2019 02/10 06:30	8.9	92.5	221.3	12.1	29.40	43.4	0.0	12.98	-137.6	0	-997.0	-996.0	14.5	0	0	0	0	0	26.3	27.8	0.0
2019 02/10 06:45	8.9	92.7	232.0	15.7	29.40	43.3	1.4	12.98	-137.6	0	60.7	8.3	14.9	0	0	0	0	0	26.3	27.8	0.0
2019 02/10 07:00	9.4	92.9	236.5	15.3	29.40	43.2	25.4	12.96	-137.6	0	93.0	11.9	14.7	0	0	0	0	0	26.3	27.8	0.0
2019 02/10 07:15	9.7	93.1	249.8	16.2	29.40	43.2	137.1	12.99	-137.6	0	-997.0	-996.0	14.9	0	0	0	0	0	26.3	27.8	0.0
2019 02/10 07:30	10.0	93.3	234.1	18.9	29.40	43.1	409.0	12.98	-137.5	0	-997.0	-996.0	16.5	0	0	0	0	0	26.3	27.8	0.0
2019 02/10 07:45	10.6	93.3	221.2	17.9	29.41	43.1	621.4	12.97	-137.6	0	60.0	14.6	20.7	0	0	0	0	0	26.3	27.8	0.0
2019 02/10 08:00	10.6	93.5	245.6	17.5	29.41	43.0	654.7	12.97	-137.6	0	61.0	14.6	19.8	0	0	0	0	0	26.3	27.8	0.0
2019 02/10 08:15	10.8	93.7	229.9	17.2	29.42	43.0	722.0	12.96	-137.6	0	-997.0	-996.0	21.6	0	0	0	0	0	26.3	27.8	0.0
2019 02/10 08:30	11.2	93.5	249.7	17.3	29.42	43.0	793.0	12.98	-137.6	0	-997.0	-996.0	23.2	0	0	0	0	0	26.3	27.8	0.0
2019 02/10 08:45	11.8	93.7	273.5	19.8	29.43	43.0	840.0	12.99	-137.6	0	61.3	16.4	25.7	0	0	0	0	0	26.3	27.8	0.0
2019 02/10 09:00	12.5	94.0	248.9	19.3	29.44	43.0	835.0	12.97	-137.6	0	61.3	17.3	26.4	0	0	0	0	0	26.3	27.8	0.0
2019 02/10 09:15	13.3	94.3	270.2	19.4	29.43	43.0	823.0	13.00	-137.6	0	-997.0	-996.0	25.1	0	0	0	0	0	26.3	27.8	0.0
2019 02/10 09:30	13.8	94.3	262.5	20.2	29.44	43.0	828.0	12.97	-137.6	0	-997.0	-996.0	26.8	0	0	0	0	0	26.3	27.8	0.0
2019 02/10 09:45	14.6	94.9	248.2	21.5	29.44	43.1	808.0	12.97	-137.6	0	61.5	17.3	25.5	0	0	0	0	0	26.3	27.8	0.0
2019 02/10 10:00	14.4	95.0	278.3	17.4	29.45	43.2	821.0	12.97	-137.6	0	61.5	17.3	26.3	0	0	0	0	0	26.3	27.8	0.0
2019 02/10 10:15	14.6	95.0	248.4	18.8	29.45	43.5	846.0	13.00	-137.6	0	60.9	17.3	25.1	0	0	0	0	0	26.3	27.8	0.0
2019 02/10 10:30	14.9	95.2	231.4	21.5	29.46	43.7	846.0	13.00	-137.6	0	-997.0	-996.0	27.0	0	0	0	0	0	26.3	27.8	0.0
2019 02/10 10:45	15.1	95.3	250.8	22.4	29.47	44.0	859.0	13.00	-137.5	0	92.4	17.3	25.9	0	0	0	0	0	26.3	27.8	0.0
2019 02/10 11:00	15.2	95.5	233.4	19.5	29.47	44.3	852.0	12.96	-137.6	0	61.1	17.3	27.8	0	0	0	0	0	26.3	27.8	0.0
2019 02/10 11:15	15.5	95.5	238.1	23.8	29.47	44.6	853.0	12.99	-137.5	0	-997.0	-996.0	28.6	0	0	0	0	0	26.3	27.8	0.0
2019 02/10 11:30	15.7	95.6	258.6	23.5	29.48	44.9	870.0	12.96	-137.5	0	-997.0	-996.0	27.2	0	0	0	0	0	26.3	27.8	0.0
2019 02/10 11:45	16.1	95.6	226.0	25.2	29.49	45.2	867.0	12.99	-137.5	0	92.8	17.3	26.3	0	0	0	0	0	26.3	27.8	0.0
2019 02/10 12:00	16.1	95.7	258.6	24.8	29.49	45.6	860.0	12.97	-137.5	0	60.4	18.2	25.9	0	0	0	0	0	26.3	27.8	0.0
2019 02/10 12:15	16.2	96.8	255.3	27.2	29.50	45.9	865.0	12.97	-137.5	0	60.4	18.2	25.9	0	0	0	0	0	26.3	27.8	0.0
2019 02/10 12:30	16.2	95.8	262.5	24.0	29.51	46.3	837.0	12.98	-137.5	0	-997.0	-996.0	25.7	0	0	0	0	0	26.3	27.8	0.0
2019 02/10 12:45	16.1	95.8	234.7	26.6	29.52	46.7	838.0	12.97	-137.5	0	60.7	18.2	26.2	0	0	0	0	0	26.3	27.8	0.0
2019 02/10 13:00	16.1	95.7	236.5	25.3	29.52	47.1	853.0	12.99	-137.5	0	91.4	18.2	24.0	0	0	0	0	0	26.3	27.8	0.0
2019 02/10 13:15	16.2	95.8	264.0	27.6	29.52	47.5	854.0	12.99	-137.4	0	-997.0	-996.0	24.0	0	0	0	0	0	26.3	27.8	0.0
2019 02/10 13:30	16.1	95.9	232.5	27.5	29.53	47.8	833.0	12.96	-137.4	0	-997.0	-996.0	25.5	0	0	0	0	0	26.3	27.8	0.0
2019 02/10 13:45	15.9	96.1	229.1	29.8	29.53	48.2	826.0	12.99	-137.4	0	60.3	18.2	24.8	0	0	0	0	0	26.3	27.8	0.0
2019 02/10 14:00	15.8	95.8	241.2	30.2	29.54	48.6	812.0	12.97	-137.4	0	92.0	18.2	24.8	0	0	0	0	0	26.3	27.8	0.0
2019 02/10 14:15	15.7	95.8	234.2	27.9	29.54	48.9	814.0	12.97	-137.2	0	92.6	18.2	24.6	0	0	0	0	0	26.3	27.8	0.0
2019 02/10 14:30	15.7	95.9	244.5	31.8	29.55	49.2	798.0	13.00	-137.2	0	-997.0	-996.0	25.7	0	0	0	0	0	26.3	27.8	0.0
2019 02/10 14:45	15.6	95.8	243.9	28.2	29.56	49.6	798.0	12.98	-137.2	0	60.0	18.2	23.5	0	0	0	0	0	26.3	27.8	0.0
2019 02/10 15:00	15.4	95.8	213.1	35.3	29.56	49.9	774.0	13.00	-137.2	0	93.0	18.2	23.6	0	0	0	0	0	26.3	27.8	0.0
2019 02/10 15:15	15.2	95.5	252.9	29.4	29.56	50.1	752.0	12.97	-137.2	0	-997.0	-996.0	23.6	0	0	0	0	0	26.3	27.8	0.0
2019 02/10 15:30	15.0	95.5	229.3	27.2	29.57	50.3	717.0	12.99	-137.1	0	-997.0	-996.0	22.4	0	0	0	0	0	26.3	27.8	0.0
2019 02/10 15:45	14.8	95.5	242.3	26.6	29.58	50.5	721.0	12.99	-137.1	0	59.8	17.3	23.6	0	0	0	0	0	26.3	27.8	0.0
2019 02/10 16:00	14.7	95.5	227.3	26.8	29.57	50.6	694.1	13.00	-137.1	0	59.8	17.3	23.5	0	0	0	0	0	26.3	27.8	0.0
2019 02/10 16:15	14.5	95.1	264.4	30.5	29.57	50.7	640.5	12.97	-137.1	0	-997.0	-996.0	24.0	0	0	0	0	0	26.3	27.8	0.0
2019 02/10 16:30	14.2	95.3	223.9	32.5	29.56	50.7	592.4	12.97	-137.2	0	-997.0	-996.0	23.0	0	0	0	0	0	26.3	27.8	0.0
2019 02/10 16:45	14.1	95.1	278.3	30.4	29.55	50.7	551.3	12.98	-137.2	0	59.6	17.3	21.9	0	0	0	0	0	26.3	27.8	0.0
2019 02/10 17:00	14.1	95.1	210.7	34.6	29.55	50.6	344.0	13.00	-137.2	0	59.4	17.3	22.6	0	0	0	0	0	26.3	27.8	0.0
2019 02/10 17:15	14.0	95.1	237.3	38.5	29.52	50.5	241.9	12.97	-137.2	0	-997.0	-996.0	23.3	0	0	0	0	0	26.3	27.8	0.0
2019 02/10 17:30	13.9	95.1	285.8	35.2	29.53	50.5	108.2	13.00	-137.2	0	-997.0	-996.0	23.2	0	0	0	0	0	26.3	27.8	0.0
2019 02/10 17:45	13.7	95.0	227.7	34.9	29.54	50.5	14.6	12.99	-137.2	0	59.1	17.3	23.2	0	0	0	0	0	26.3	27.8	0.0
2019 02/10 18:00	13.9	95.1	235.2	36.8	29.52	50.5	0.7	13.00	-137.2	0	59.2	17.3	23.2	0	0	0	0	0	26.3	27.8	0.0
2019 02/10 18:15	13.9	95.1	243.4	40.0	29.51	50.5	-0.3	12.98	-137.2	0	-997.0	-996.0	21.8	0	0	0	0	0	26.3	27.8	0.0
2019 02/10 18:30	14.1	95.1	235.2	42.0	29.52	50.3	0.0	12.96	-137.2	0	-997.0	-996.0	22.3	0	0	0	0	0	26.3	27.8	0.0
2019 02/10 18:45	14.0	96.0	228.2	41.1	29.54	50.3	0.0	12.98	-137.2	0	58.7	17.3	21.8	0	0	0	0	0	26.3	27.8	0.0
2019 02/10 19:00	14.1	95.1	208.0	39.8	29.53	50.3	0.0	12.97	-137.2	0	58.8	18.2	22.2	0	0	0	0	0	26.3	27.8	0.0
2019 02/10 19:15	14.2	95.0	203.1	34.7	29.55	50.2	-0.3	12.98	-137.2	0	58.1	18.2	23.0	0	0	0	0	0	26.3	27.8	0.0
2019 02/10 19:30	14.4	95.2	220.7	30.7	29.53	50.1	0.0	12.97	-137.2	0	-997.0	-996.0	22.3	0	0	0	0	0	26.3	27.8	0.0
2019 02/10 19:45	14.6	95.3	240.2	40.1	29.52	50.1	-0.3	13.00	-137.2	0	58.3	18.2	23.0	0	0	0	0	0	26.3	27.8	0.0
2019 02/10 20:00	14.7	95.3	244.3	37.4	29.53	50.1	0.0	12.98	-137.2	0	58.4	19.1	22.3	0	0	0	0	0	26.3	27.8	0.0
2019 02/10 20:15	14.8	95.4	212.7	37.6	29.52	50.1	0.0	12.99	-137.2	0	-997.0	-996.0	22.5	0	0	0	0	0	26.3	27.8	0.0
2019 02/10 20:30	15.1	95.5	228.6	42.1	29.50	50.0	0.0	13.00	-137.3	0	-997.0	-996.0	23.4	0	0	0	0	0	26.3	27.8	0.0
2019 02/10 20:45	15.3	95.6	224.4	42.2	29.51	49.9	0.0	12.97	-137.3	0	59.7	19.1	23.5	0	0	0	0	0	26.3	27.8	0.0
2019 02/10 21:00	15.6	95.8	242.1	46.9	29.50	49.9	0.0	12.97	-137.3	0	59.9	19.1	22.7	0	0	0	0	0	26.3	27.8	0.0
2019 02/10 21:15	15.7	95.7	230.2	39.4	29.50	49.9	-0.3	12.99	-137.3	0	-997.0	-996.0	23.0	0	0	0	0	0	26.3	27.8	0.0
2019 02/10 21:30	15.9	95.9	213.8	42.0	29.50	49.9	0.0	12.98	-137.3	0	-997.0	-996.0	23.5	0	0	0	0	0	26.3	27.8	0.0
2019 02/10 21:45	16.2	95.9	226.1	41.4	29.50	49.8	0.0	12.97	-137.3	0	59.1	20.0	23.2	0	0	0	0	0	26.3	27.8	0.0
2019 02/10 22:00	16.6	96.1	243.3	46.7	29.48	49.7	-0.3	12.98	-137.3	0	60.2	20.9	24.1	0	0	0	0	0	26.3	27.8	0.0
2019 02/10 22:15	16.9	96.2	235.2	41.1	29.49	49.7	0.0	12.97	-137.3	0	-997.0	-996.0	24.3	0	0	0	0	0	26.3	27.8	0.0
2019 02/10 22:30	17.3	96.4	228.4	45.5	29.48	49.7	0.0	12.98	-137.3	0	-997.0	-996.0	24.0	0	0	0	0	0	26.3	27.8	0.0
2019 02/10 22:45	17.5	96.6	235.2	45.9	29.47	49.7	0.0	13.00	-137.4	0	60.0	21.8	24.3	0	0	0	0	0	26.3	27.8	0.0
2019 02/10 23:00	17.8	96.6	233.8	45.1	29.47	49.7	0.0	12.98	-137.3	0	59.8	21.8	24.3	0	0	0	0	0	26.3	27.8	0.0
2019 02/10 23:15	18.1	96.9	232.1	42.2	29.47	49.5	0.0	13.00	-137.3	0	-997.0	-996.0	24.8	0	0	0	0	0	26.3	27.8	0.0
2019 02/10 23:30	18.4	97.0	239.4	49.6	29.46	49.5	0.0	12.99	-137.4	0	-997.0	-996.0	24.5	0	0	0	0	0	26.3	27.8	0.0
2019 02/10 23:45	18.6	97.1	250.1	53.2	29.43	49.5	0.0	13.00	-137.3	0	59.8	22.7	24.5	0	0	0	0	0	26.3	27.8	0.0
2019 02/11 00:00	18.9	97.2	244.0	59.3	29.44	49.5	0.0	12.98	-137.3	0	59.6	22.7	25.0	0	0	0	0	0	26.3	27.8	0.0
2019 02/11 00:15	19.1	97.3	231.5	49.2	29.46	49.4	-0.3	12.98	-137.3	0	-997.0	-996.0	25.1	0	0	0	0	0	26.3	27.8	0.0
2019 02/11 00:30	19.4	97.2	220.9	47.5	29.46	49.3	0.0	13.00	-137.3	0	-997.0	-996.0	25.1	0	0	0	0	0	26.3	27.8	0.0
2019 02/11 00:45	19.5	97.4	238.0	38.9	29.47	49.3	-0.3	12.97	-137.4	0	59.6	22.7	25.4	0	0	0	0	0	26.3	27.8	0.0
2019 02/11 01:00	19.6	97.5	233.0	42.7	29.47	49.3	0.0	12.99	-137.3	0	59.8	22.7	25.5	0	0	0	0	0	26.3	27.8	0.0
2019 02/11 01:15	19.7	97.5	226.1	41.3	29.46	49.3	0.0	12.99	-137.3	0	59.6	23.6	25.5	0	0	0	0	0	26.3	27.8	0.0
2019 02/11 01:30	19.9	97.6	238.5	46.7	29.46	49.3	0.0	13.00	-137.3	0	-997.0	-996.0	25.4	0	0	0	0	0	26.3	27.8	0.0
2019 02/11 01:45	20.0	97.4	265.0	44.5	29.47	49.4	-0.3	13.00	-137.4	0	60.0	23.6	25.7	0	0	0	0	0	26.3	27.8	0.0
2019 02/11 02:00	20.0	97.6	232.8	44.0	29.48	49.3	0.0	12.97	-137.3	0	60.0	23.6	25.7	0	0	0	0	0	26.3	27.8	0.0
2019 02/11 02:15	20.1	97.9	248.7	39.9	29.49	49.4	0.0	13.00	-137.3	0	60.2	23.6	25.7	0	0	0	0	0	26.3	27.8	0.0
2019 02/11 02:30	20.2	97.6	220.6	46.1	29.49	49.4	0.0	12.98	-137.3	0	-997.0	-996.0	25.9	0	0	0	0	0	26.3	27.8	0.0
2019 02/11 02:45	20.5	97.9	252.2	40.4	29.50	49.5	-0.3	12.98	-137.3	0	60.6	23.6	26.0	0	0	0	0	0	26.3	27.8	0.0
2019 02/11 03:00	20.6	97.8	239.0	42.7	29.49	49.5	0.0	12.98	-137.3	0	60.8	23.6	26.2	0	0	0	0	0	26.3	27.8	0.0
2019 02/11 03:15	20.7	98.0	231.1	43.8	29.50	49.5	-0.3	13.00	-137.3	0	60.5	24.5	26.3	0	0	0	0	0	26.3	27.8	0.0
2019 02/11 03:30	20.8	98.0	226.1	40.9	29.51	49.4	4.8	12.98	-137.3	0	-997.0	-996.0	26.2	0	0	0	0	0	26.3	27.8	0.0
2019 02/11 03:45	20.9	97.8	231.8	45.3	29.48	49.5	0.0	13.00	-137.3	0	61.1	24.5	26.4	0	0	0	0	0	26.3	27.8	0.0
2019 02/11 04:00	21.1	98.1	240.2	39.6	29.50	49.7	-0.3	12.98	-137.3	0	60.8	24.5	26.7	0	0	0	0	0	26.3	27.8	0.0
2019 02/11 04:15	21.2	98.1	249.7	37.6	29.50	49.7	0.0	12.99	-137.3	0	61.5	24.5	26.4	0	0	0	0	0	26.3	27.8	0.0
2019 02/11 04:30	21.2	98.2	231.8	38.0	29.50	49.7	3.4	12.97	-137.4	0	-997.0	-996.0	26.9	0	0	0	0	0	26.3	27.8	0.0
2019 02/11 04:45	21.6	98.3	229.3	39.2	29.51	49.7	0.0	12.97	-137.3	0	61.7	24.5	26.8	0	0	0	0	0	26.3	27.8	0.0
2019 02/11 05:00	21.4	98.3	237.8	38.5	29.50	49.9	1.4	12.97	-137.3	0	62.1	24.5	26.8	0	0	0	0	0	26.3	27.8	0.0
2019 02/11 05:15	21.4	99.0	230.8	42.2	29.51	49.9	1.4	12.98	-137.3	0	62.2	24.5	26.9	0	0	0	0	0	26.3	27.8	0.0
2019 02/11 05:30	21.6	98.3	236.6	34.1	29.53	49.9	0.0	12.98	-137.3	0	-997.0	-996.0	27.1	0	0	0	0	0	26.3	27.8	0.0
2019 02/11 05:45	21.6	98.2	195.5	33.1	29.54	50.1	0.0	12.98	-137.3	0	62.5	25.4	27.3	0	0	0	0	0	26.3	27.8	0.0
2019 02/11 06:00	21.7	98.4	250.4	37.4	29.53	50.1	-0.3	12.98	-137.3	0	62.4	25.4	28.2	0	0	0	0	0	26.3	27.8	0.0
2019 02/11 06:15	21.7	98.3	243.7	37.4	29.53	50.1	0.0	12.98	-137.3	0	-997.0	-996.0	28.2	0	0	0	0	0	26.3	27.8	0.0
2019 02/11 06:30	21.8	98.3	273.5	40.5	29.53	50.3	0.0	12.99	-137.2	0	-997.0	-996.0	28.8	0	0	0	0	0	26.3	27.8	0.0
2019 02/11 06:45	21.9	98.5	256.9	35.6	29.53	50.3	1.4	12.99	-137.3	0	63.0	25.4	28.4	0	0	0	0	0	26.3	27.8	0.0
2019 02/11 07:00	22.1	98.5	235.4	35.1	29.54	50.4	23.8	12.98	-137.3	0	63.1	25.4	28.7	0	0	0	0	0	26.3	27.8	0.0
2019 02/11 07:15	22.1	98.3	251.2	37.1	29.55	50.5	123.5	12.98	-137.2	0	63.3	25.4	28.5	0	0	0	0	0	26.3	27.8	0.0
2019 02/11 07:30	22.2	98.5	243.1	38.6	29.55	50.5	338.9	13.01	-137.2	0	-997.0	-996.0	28.8	0	0	0	0	0	26.3	27.8	0.0
2019 02/11 07:45	22.3	98.6	221.2	33.8	29.56	50.7	487.9	12.99	-137.2	0	61.8	25.4	28.6	0	0	0	0	0	26.3	27.8	0.0
2019 02/11 08:00	22.3	98.5	239.7	40.5	29.56	50.7	569.3	13.00	-137.2	0	61.9	25.4	29.8	0	0	0	0	0	26.3	27.8	0.0
2019 02/11 08:15	22.4	98.7	225.6	40.1	29.57	50.7	651.4	12.97	-137.2	0	63.9	26.3	30.4	0	0	0	0	0	26.3	27.8	0.0
2019 02/11 08:30	22.5	98.7	242.7	34.7	29.57	50.9	648.3	12.97	-137.2	0	-997.0	-996.0	29.3	0	0	0	0	0	26.3	27.8	0.0
2019 02/11 08:45	22.7	98.7	219.7	39.1	29.58	50.9	708.0	12.98	-137.2	0	62.8	26.3	30.0	0	0	0	0	0	26.3	27.8	0.0
2019 02/11 09:00	22.8	98.9	242.1	35.3	29.59	50.9	723.0	12.97	-137.2	0	64.5	26.3	30.2	0	0	0	0	0	26.3	27.8	0.0
2019 02/11 09:15	23.0	98.8	229.5	39.2	29.59	51.1	793.0	13.00	-137.2	0	64.8	26.3	30.5	0	0	0	0	0	26.3	27.8	0.0
2019 02/11 09:30	23.1	98.7	245.6	36.0	29.60	51.1	776.0	12.98	-137.2	0	-997.0	-996.0	31.2	0	0	0	0	0	26.3	27.8	0.0
2019 02/11 09:45	23.4	99.7	235.9	41.1	29.60	51.4	797.0	13.00	-137.2	0	64.3	27.2	30.7	0	0	0	0	0	26.3	27.8	0.0
2019 02/11 10:00	23.5	98.9	236.4	45.3	29.60	51.6	824.0	13.00	-137.2	0	64.4	27.2	31.8	0	0	0	0	0	26.3	27.8	0.0
2019 02/11 10:15	23.6	99.0	237.4	41.6	29.61	52.0	802.0	12.98	-137.1	0	65.2	27.2	32.0	0	0	0	0	0	26.3	27.8	0.0
2019 02/11 10:30	23.8	99.1	241.9	30.4	29.63	52.3	816.0	12.99	-137.1	0	-997.0	-996.0	33.1	0	0	0	0	0	26.3	27.8	0.0
2019 02/11 10:45	24.0	99.2	253.4	33.4	29.64	52.7	797.0	12.97	-137.0	0	65.5	27.2	32.5	0	0	0	0	0	26.3	27.8	0.0
2019 02/11 11:00	24.1	99.2	225.4	32.6	29.65	53.3	818.0	12.99	-137.0	0	64.8	28.1	33.2	0	0	0	0	0	26.3	27.8	0.0
2019 02/11 11:15	24.2	99.3	234.5	38.6	29.65	53.7	823.0	13.00	-136.9	0	64.4	28.1	33.4	0	0	0	0	0	26.3	27.8	0.0
2019 02/11 11:30	24.2	99.3	216.9	31.3	29.66	54.1	829.0	12.97	-136.7	0	-997.0	-996.0	33.4	0	0	0	0	0	26.3	27.8	0.0
2019 02/11 11:45	24.6	99.3	227.6	39.3	29.65	54.6	826.0	12.97	-136.6	0	66.1	28.1	33.4	0	0	0	0	0	26.3	27.8	0.0
2019 02/11 12:00	24.5	99.4	245.1	40.8	29.67	55.0	836.0	12.97	-136.6	0	66.6	28.1	33.2	0	0	0	0	0	26.3	27.8	0.0
2019 02/11 12:15	24.6	99.4	224.5	37.4	29.68	55.5	820.0	12.97	-136.5	0	66.1	28.1	33.3	0	0	0	0	0	26.3	27.8	0.0
2019 02/11 12:30	24.7	99.5	220.4	39.6	29.68	55.9	826.0	12.98	-136.4	0	-997.0	-996.0	33.7	0	0	0	0	0	26.3	27.8	0.0
2019 02/11 12:45	24.9	99.5	250.6	33.4	30.03	56.3	847.0	12.99	-136.2	0	65.6	29.0	34.2	0	0	0	0	0	26.3	27.8	0.0
2019 02/11 13:00	25.1	99.7	224.0	29.3	29.69	56.5	854.0	13.00	-136.2	0	66.7	29.0	34.4	0	0	0	0	0	26.3	27.8	0.0
2019 02/11 13:15	25.3	99.3	237.4	40.9	29.68	56.7	867.0	13.00	-136.1	0	66.7	29.0	34.2	0	0	0	0	0	26.3	27.8	0.0
2019 02/11 13:30	25.5	99.7	219.0	33.2	29.69	56.9	874.0	12.99	-136.1	0	-997.0	-996.0	33.7	0	0	0	0	0	26.3	27.8	0.0
2019 02/11 13:45	25.6	99.7	258.8	35.6	29.68	57.1	841.0	12.97	-136.1	0	66.6	29.0	33.7	0	0	0	0	0	26.3	27.8	0.0
2019 02/11 14:00	25.3	99.7	223.6	44.5	29.68	57.1	843.0	12.99	-136.1	0	67.0	29.0	34.4	0	0	0	0	0	26.3	27.8	0.0
2019 02/11 14:15	25.2	99.7	224.2	35.3	29.68	57.3	845.0	13.00	-136.1	0	66.9	29.9	33.7	0	0	0	0	0	26.3	27.8	0.0
2019 02/11 14:30	25.3	99.7	218.3	44.2	29.68	57.4	803.0	12.99	-136.1	0	-997.0	-996.0	33.1	0	0	0	0	0	26.3	27.8	0.0
2019 02/11 14:45	25.1	99.6	240.6	44.9	29.68	57.4	816.0	13.01	-136.1	0	67.8	29.0	34.3	0	0	0	0	0	26.3	27.8	0.0
2019 02/11 15:00	25.2	99.7	238.8	43.5	29.68	57.4	835.0	13.00	-136.1	0	67.8	29.0	33.1	0	0	0	0	0	26.3	27.8	0.0
2019 02/11 15:15	25.3	99.7	241.6	40.1	29.68	57.6	800.0	12.99	-136.0	0	67.4	29.0	33.3	0	0	0	0	0	26.3	27.8	0.0
2019 02/11 15:30	25.5	99.9	237.6	45.8	29.68	57.6	797.0	12.99	-136.0	0	-997.0	-996.0	33.2	0	0	0	0	0	26.3	27.8	0.0
2019 02/11 15:45	25.5	99.7	213.5	36.9	29.68	57.7	780.0	13.01	-136.0	0	67.1	29.0	33.5	0	0	0	0	0	26.3	27.8	0.0
2019 02/11 16:00	25.5	99.7	234.7	37.8	29.69	57.8	728.0	12.99	-136.0	0	67.5	29.0	33.1	0	0	0	0	0	26.3	27.8	0.0
2019 02/11 16:15	25.8	99.9	223.0	45.4	29.69	57.8	689.4	12.99	-136.0	0	66.9	29.0	33.1	0	0	0	0	0	26.3	27.8	0.0
2019 02/11 16:30	25.3	99.7	217.2	45.1	29.69	57.8	692.8	12.99	-136.0	0	67.0	29.0	32.4	0	0	0	0	0	26.3	27.8	0.0
2019 02/11 16:45	25.3	99.9	247.6	43.4	29.69	57.8	596.1	12.99	-136.0	0	66.7	28.1	32.1	0	0	0	0	0	26.3	27.8	0.0
2019 02/11 17:00	25.5	99.8	243.7	40.0	29.70	57.8	487.5	12.98	-136.0	0	66.9	28.1	32.3	0	0	0	0	0	26.3	27.8	0.0
2019 02/11 17:15	25.2	99.8	216.5	38.4	29.68	57.7	326.7	13.00	-136.0	0	66.9	28.1	32.0	0	0	0	0	0	26.3	27.8	0.0
2019 02/11 17:30	25.1	99.8	232.1	38.8	29.68	57.6	134.4	12.98	-136.0	0	-997.0	-996.0	31.7	0	0	0	0	0	26.3	27.8	0.0
2019 02/11 17:45	25.1	99.9	193.0	41.5	29.67	57.6	24.1	13.01	-136.1	0	67.1	28.1	31.7	0	0	0	0	0	26.3	27.8	0.0
2019 02/11 18:00	25.1	99.9	218.5	44.8	29.68	57.4	1.4	12.98	-136.1	0	67.2	28.1	31.7	0	0	0	0	0	26.3	27.8	0.0
2019 02/11 18:15	25.1	99.8	213.7	36.1	29.69	57.4	0.0	13.01	-136.1	0	67.0	28.1	32.0	0	0	0	0	0	26.3	27.8	0.0
2019 02/11 18:30	25.2	99.9	227.7	39.5	29.69	57.1	-0.3	12.99	-136.2	0	-997.0	-996.0	32.1	0	0	0	0	0	26.3	27.8	0.0
2019 02/11 18:45	25.3	99.9	247.8	36.2	29.68	56.9	0.0	12.99	-136.2	0	67.2	29.0	31.8	0	0	0	0	0	26.3	27.8	0.0
2019 02/11 19:00	25.3	99.9	231.9	40.9	29.68	56.9	0.0	12.99	-136.4	0	67.1	29.0	32.2	0	0	0	0	0	26.3	27.8	0.0
2019 02/11 19:15	25.3	99.9	225.4	39.4	29.69	56.7	0.0	12.99	-136.4	0	67.2	28.1	32.0	0	0	0	0	0	26.3	27.8	0.0
2019 02/11 19:30	25.2	99.9	262.2	38.9	29.69	56.5	0.0	12.99	-136.4	0	-997.0	-996.0	32.2	0	0	0	0	0	26.3	27.8	0.0
2019 02/11 19:45	25.3	99.9	195.1	39.5	29.68	56.3	0.0	12.97	-136.5	0	67.0	29.0	32.1	0	0	0	0	0	26.3	27.8	0.0
2019 02/11 20:00	25.2	99.9	255.7	42.1	29.67	56.1	0.0	12.99	-136.5	0	67.0	29.0	32.3	0	0	0	0	0	26.3	27.8	0.0
2019 02/11 20:15	25.3	100.3	247.0	38.4	29.68	56.0	-0.3	12.99	-136.5	0	67.0	29.0	32.2	0	0	0	0	0	26.3	27.8	0.0
2019 02/11 20:30	25.5	99.9	223.6	45.2	29.67	55.9	0.0	12.97	-136.6	0	-997.0	-996.0	32.0	0	0	0	0	0	26.3	27.8	0.0
2019 02/11 20:45	25.3	99.9	226.7	41.1	29.67	55.6	0.0	12.99	-136.6	0	67.0	29.0	32.6	0	0	0	0	0	26.3	27.8	0.0
2019 02/11 21:00	25.2	99.9	213.6	46.9	29.67	55.4	0.0	13.00	-136.6	0	67.0	29.0	31.8	0	0	0	0	0	26.3	27.8	0.0
2019 02/11 21:15	25.2	99.9	202.0	31.6	29.68	55.2	0.0	12.97	-136.6	0	66.4	28.1	32.1	0	0	0	0	0	26.3	27.8	0.0
2019 02/11 21:30	25.2	99.9	196.1	34.6	29.68	55.0	0.0	13.00	-136.7	0	-997.0	-996.0	31.8	0	0	0	0	0	26.3	27.8	0.0
2019 02/11 21:45	25.2	100.4	233.7	34.4	29.67	54.8	-0.3	12.98	-136.7	0	66.9	28.1	31.8	0	0	0	0	0	26.3	27.8	0.0
2019 02/11 22:00	25.2	100.0	220.8	33.5	29.68	54.6	-0.3	12.97	-136.7	0	66.8	29.0	32.1	0	0	0	0	0	26.3	27.8	0.0
2019 02/11 22:15	25.3	100.0	255.9	39.3	29.68	54.6	0.0	12.99	-136.9	0	66.9	29.0	31.8	0	0	0	0	0	26.3	27.8	0.0
2019 02/11 22:30	25.3	99.9	207.2	32.2	29.68	54.4	0.0	12.99	-136.9	0	-997.0	-996.0	32.2	0	0	0	0	0	26.3	27.8	0.0
2019 02/11 22:45	25.3	100.8	226.7	42.8	29.67	54.2	-0.3	12.99	-136.9	0	66.9	29.0	32.0	0	0	0	0	0	26.3	27.8	0.0
2019 02/11 23:00	25.3	99.9	205.4	38.4	29.65	54.1	0.0	12.99	-136.9	0	66.8	29.0	31.7	0	0	0	0	0	26.3	27.8	0.0
2019 02/11 23:15	25.3	99.9	245.2	31.3	29.68	53.9	-0.3	12.99	-136.9	0	66.7	29.0	31.5	0	0	0	0	0	26.3	27.8	0.0
2019 02/11 23:30	25.2	99.9	217.4	32.2	29.67	53.9	0.0	13.00	-136.9	0	-997.0	-996.0	31.5	0	0	0	0	0	26.3	27.8	0.0
2019 02/11 23:45	25.2	99.8	193.7	29.8	29.68	53.7	-0.3	13.00	-136.9	0	66.8	28.1	31.4	0	0	0	0	0	26.3	27.8	0.0
2019 02/12 00:00	25.2	99.9	194.5	32.0	29.68	53.6	0.0	13.00	-137.0	0	66.7	28.1	30.9	0	0	0	0	0	26.3	27.8	0.0
2019 02/12 00:15	25.2	99.9	208.8	36.0	29.67	53.5	-0.3	12.99	-137.0	0	66.7	28.1	31.2	0	0	0	0	0	26.3	27.8	0.0
2019 02/12 00:30	25.2	99.9	205.8	29.6	29.67	53.5	0.0	12.97	-137.0	0	-997.0	-996.0	31.1	0	0	0	0	0	26.3	27.8	0.0
2019 02/12 00:45	25.1	99.9	226.0	34.7	29.66	53.4	0.0	12.98	-137.0	0	66.7	28.1	31.4	0	0	0	0	0	26.3	27.8	0.0
2019 02/12 01:00	25.2	99.9	217.1	32.0	29.66	53.3	0.0	12.99	-137.0	0	66.6	28.1	31.2	0	0	0	0	0	26.3	27.8	0.0
2019 02/12 01:15	25.2	99.9	178.4	31.8	29.66	53.3	0.0	12.99	-137.0	0	-997.0	-996.0	31.3	0	0	0	0	0	26.3	27.8	0.0
2019 02/12 01:30	25.2	99.9	189.7	36.4	29.65	53.1	-0.3	13.00	-137.0	0	-997.0	-996.0	31.5	0	0	0	0	0	26.3	27.8	0.0
2019 02/12 01:45	25.2	99.8	243.2	28.8	29.67	53.1	-0.3	12.97	-137.0	0	66.5	28.1	31.2	0	0	0	0	0	26.3	27.8	0.0
2019 02/12 02:00	25.2	99.8	210.6	28.6	29.66	53.0	0.0	13.01	-137.0	0	66.5	28.1	31.2	0	0	0	0	0	26.3	27.8	0.0
2019 02/12 02:15	25.1	99.7	202.1	26.4	29.67	52.9	-0.3	12.99	-137.0	0	66.5	28.1	31.2	0	0	0	0	0	26.3	27.8	0.0
2019 02/12 02:30	25.2	99.9	224.4	33.1	29.68	52.9	0.0	12.97	-137.0	0	-997.0	-996.0	31.2	0	0	0	0	0	26.3	27.8	0.0
2019 02/12 02:45	25.3	99.8	183.4	24.0	29.67	52.9	-0.3	12.99	-137.0	0	66.3	29.0	31.4	0	0	0	0	0	26.3	27.8	0.0
2019 02/12 03:00	25.2	99.9	261.7	28.9	29.66	52.9	-0.3	12.99	-137.0	0	66.4	28.1	31.4	0	0	0	0	0	26.3	27.8	0.0
2019 02/12 03:15	25.2	99.9	225.2	28.9	29.66	52.9	0.0	12.98	-137.0	0	66.3	28.1	31.4	0	0	0	0	0	26.3	27.8	0.0
2019 02/12 03:30	25.2	99.9	235.7	26.8	29.66	52.9	-0.3	12.97	-137.0	0	-997.0	-996.0	31.3	0	0	0	0	0	26.3	27.8	0.0
2019 02/12 03:45	25.2	99.8	234.3	26.6	29.65	52.9	0.0	13.00	-137.0	0	66.1	29.0	31.4	0	0	0	0	0	26.3	27.8	0.0
2019 02/12 04:00	25.2	99.9	230.9	28.1	29.65	52.9	-0.3	12.98	-137.0	0	66.2	28.1	31.2	0	0	0	0	0	26.3	27.8	0.0
2019 02/12 04:15	25.2	99.9	225.3	29.1	29.65	52.9	0.0	12.97	-137.0	0	66.2	28.1	31.3	0	0	0	0	0	26.3	27.8	0.0
2019 02/12 04:30	25.2	99.9	238.2	31.4	29.64	53.0	0.0	12.97	-137.0	0	-997.0	-996.0	31.3	0	0	0	0	0	26.3	27.8	0.0
2019 02/12 04:45	25.1	100.0	225.7	27.4	29.65	53.0	-0.3	12.98	-137.0	0	66.1	28.1	31.2	0	0	0	0	0	26.3	27.8	0.0
2019 02/12 05:00	25.1	99.8	234.6	28.0	29.65	53.0	0.0	12.98	-137.0	0	66.1	28.1	31.1	0	0	0	0	0	26.3	27.8	0.0
2019 02/12 05:15	25.0	99.8	214.8	34.2	29.63	53.1	0.0	12.98	-137.0	0	66.1	28.1	31.2	0	0	0	0	0	26.3	27.8	0.0
2019 02/12 05:30	25.0	99.7	163.2	31.1	29.63	53.0	-0.3	12.99	-137.0	0	-997.0	-996.0	31.3	0	0	0	0	0	26.3	27.8	0.0
2019 02/12 05:45	24.9	99.7	161.7	38.5	29.62	52.9	0.0	13.00	-137.0	0	66.0	28.1	31.7	0	0	0	0	0	26.3	27.8	0.0
2019 02/12 06:00	24.9	99.7	187.8	37.9	29.62	52.9	0.0	12.99	-137.0	0	65.9	28.1	31.7	0	0	0	0	0	26.3	27.8	0.0
2019 02/12 06:15	24.9	99.7	208.7	41.5	29.61	52.9	0.0	13.00	-137.0	0	66.0	28.1	32.1	0	0	0	0	0	26.3	27.8	0.0
2019 02/12 06:30	24.9	99.7	222.1	32.6	29.62	52.6	0.0	12.99	-137.0	0	-997.0	-996.0	31.7	0	0	0	0	0	26.3	27.8	0.0
2019 02/12 06:45	24.7	99.7	195.7	37.3	29.61	52.5	1.0	12.99	-137.0	0	65.9	28.1	32.1	0	0	0	0	0	26.3	27.8	0.0
2019 02/12 07:00	24.7	99.7	205.8	34.8	29.61	52.4	22.4	12.98	-137.1	0	65.9	28.1	31.8	0	0	0	0	0	26.3	27.8	0.0
2019 02/12 07:15	24.6	99.6	205.4	31.9	29.61	52.2	110.9	12.97	-137.1	0	65.8	28.1	32.0	0	0	0	0	0	26.3	27.8	0.0
2019 02/12 07:30	24.6	99.6	220.9	33.2	29.60	52.2	244.3	12.98	-137.1	0	-997.0	-996.0	31.6	0	0	0	0	0	26.3	27.8	0.0
2019 02/12 07:45	24.6	99.6	212.5	40.0	29.60	52.2	381.7	12.99	-137.1	0	65.8	28.1	32.0	0	0	0	0	0	26.3	27.8	0.0
2019 02/12 08:00	24.6	99.6	204.4	38.6	29.59	52.0	503.1	12.99	-137.1	0	65.7	28.1	32.2	0	0	0	0	0	26.3	27.8	0.0
2019 02/12 08:15	24.6	99.5	214.0	31.8	29.60	51.8	621.2	12.98	-137.1	0	65.7	28.1	32.4	0	0	0	0	0	26.3	27.8	0.0
2019 02/12 08:30	24.6	99.7	233.3	30.6	29.60	51.8	730.0	12.99	-137.1	0	-997.0	-996.0	32.5	0	0	0	0	0	26.3	27.8	0.0
2019 02/12 08:45	24.7	99.6	191.5	34.5	29.60	51.7	757.0	12.98	-137.1	0	65.5	29.0	33.3	0	0	0	0	0	26.3	27.8	0.0
2019 02/12 09:00	24.9	100.3	213.3	38.6	29.60	51.6	757.0	12.98	-137.1	0	65.3	29.0	33.1	0	0	0	0	0	26.3	27.8	0.0
2019 02/12 09:15	24.9	99.8	252.5	32.5	29.60	51.6	731.0	12.98	-137.1	0	65.4	29.0	32.7	0	0	0	0	0	26.3	27.8	0.0
2019 02/12 09:30	24.9	99.7	174.0	33.5	29.60	51.4	784.0	12.99	-137.1	0	-997.0	-996.0	33.6	0	0	0	0	0	26.3	27.8	0.0
2019 02/12 09:45	25.2	99.7	192.8	35.2	29.59	51.4	796.0	12.99	-137.2	0	65.4	29.9	34.9	0	0	0	0	0	26.3	27.8	0.0
2019 02/12 10:00	25.3	99.9	220.2	42.9	29.57	51.4	824.0	12.98	-137.2	0	65.4	29.9	35.2	0	0	0	0	0	26.3	27.8	0.0
2019 02/12 10:15	25.5	100.0	201.0	35.8	29.58	51.1	822.0	12.99	-137.2	0	64.9	30.8	34.8	0	0	0	0	0	26.3	27.8	0.0
2019 02/12 10:30	25.6	99.9	209.9	38.9	29.57	51.0	820.0	12.99	-137.2	0	64.8	30.8	35.3	0	0	0	0	0	26.3	27.8	0.0
2019 02/12 10:45	25.6	100.3	202.4	42.1	29.56	50.9	790.0	12.99	-137.2	0	64.4	30.8	33.6	0	0	0	0	0	26.3	27.8	0.0
2019 02/12 11:00	25.7	100.0	213.6	46.7	29.55	50.7	788.0	12.98	-137.2	0	65.6	29.9	34.2	0	0	0	0	0	26.3	27.8	0.0
2019 02/12 11:15	25.8	100.0	204.0	49.1	29.55	50.7	828.0	12.98	-137.2	0	64.4	29.9	34.2	0	0	0	0	0	26.3	27.8	0.0
2019 02/12 11:30	25.9	100.2	189.0	39.3	29.56	50.5	818.0	12.99	-137.2	0	-997.0	-996.0	34.6	0	0	0	0	0	26.3	27.8	0.0
2019 02/12 11:45	25.9	100.1	201.8	40.5	29.54	50.4	813.0	12.98	-137.2	0	-999.9	-999.9	34.4	0	0	0	0	0	26.3	27.8	0.0
2019 02/12 12:00	26.1	100.2	176.2	44.0	29.54	50.3	827.0	13.00	-137.2	0	66.1	30.8	34.1	0	0	0	0	0	26.3	27.8	0.0
2019 02/12 12:15	26.3	100.2	203.1	34.2	29.54	50.2	818.0	12.98	-137.2	0	65.8	30.8	34.5	0	0	0	0	0	26.3	27.8	0.0
2019 02/12 12:30	26.6	100.4	211.8	32.5	29.55	50.1	825.0	12.98	-137.2	0	-997.0	-996.0	34.8	0	0	0	0	0	26.3	27.8	0.0
2019 02/12 12:45	26.9	101.3	200.4	24.1	29.56	50.3	824.0	12.97	-137.2	0	-999.9	-999.9	34.8	0	0	0	0	0	26.3	27.8	0.0
2019 02/12 13:00	27.2	100.6	134.6	23.1	29.56	50.4	799.0	12.97	-137.2	0	-999.9	-999.9	34.0	0	0	0	0	0	26.3	27.8	0.0
2019 02/12 13:15	27.3	100.7	216.4	28.1	29.56	50.5	782.0	12.98	-137.2	0	-999.9	-999.9	33.9	0	0	0	0	0	26.3	27.8	0.0
2019 02/12 13:30	27.2	100.6	231.5	23.6	29.56	50.7	797.0	12.98	-137.2	0	-997.0	-996.0	35.1	0	0	0	0	0	26.3	27.8	0.0
2019 02/12 13:45	27.2	100.6	236.0	27.1	29.56	50.9	803.0	12.98	-137.2	0	-999.9	-999.9	34.6	0	0	0	0	0	26.3	27.8	0.0
2019 02/12 14:00	27.2	100.7	245.2	22.4	29.57	51.1	803.0	12.98	-137.2	0	65.9	30.8	35.3	0	0	0	0	0	26.3	27.8	0.0
2019 02/12 14:15	27.2	100.7	233.1	25.6	29.58	51.4	788.0	12.99	-137.1	0	67.7	30.8	35.4	0	0	0	0	0	26.3	27.8	0.0
2019 02/12 14:30	27.3	100.7	233.6	19.2	29.59	51.8	799.0	12.98	-137.1	0	-997.0	-996.0	34.9	0	0	0	0	0	26.3	27.8	0.0
2019 02/12 14:45	27.4	100.7	239.7	13.7	29.59	52.0	790.0	12.99	-137.1	0	-999.9	-999.9	34.2	0	0	0	0	0	26.3	27.8	0.0
2019 02/12 15:00	27.4	100.8	236.6	16.6	29.59	52.2	781.0	12.99	-137.1	0	-999.9	-999.9	35.5	0	0	0	0	0	26.3	27.8	0.0
2019 02/12 15:15	27.4	100.8	236.4	15.7	29.59	52.5	784.0	13.01	-137.0	0	68.0	30.8	35.0	0	0	0	0	0	26.3	27.8	0.0
2019 02/12 15:30	27.4	100.9	216.5	14.8	29.60	52.9	757.0	12.99	-137.0	0	-997.0	-996.0	34.3	0	0	0	0	0	26.3	27.8	0.0
2019 02/12 15:45	27.4	100.8	216.6	23.4	29.59	53.1	728.0	12.99	-137.0	0	69.7	30.8	34.3	0	0	0	0	0	26.3	27.8	0.0
2019 02/12 16:00	27.2	100.9	246.4	24.1	29.60	53.3	705.0	12.99	-136.9	0	69.6	29.9	33.4	0	0	0	0	0	26.3	27.8	0.0
2019 02/12 16:15	26.9	101.4	241.1	20.4	29.60	53.5	649.0	12.97	-136.9	0	70.0	29.9	33.5	0	0	0	0	0	26.3	27.8	0.0
2019 02/12 16:30	27.1	100.8	227.1	18.1	29.60	53.7	620.2	13.00	-136.9	0	-997.0	-996.0	32.7	0	0	0	0	0	26.3	27.8	0.0
2019 02/12 16:45	26.4	100.6	253.3	22.6	29.60	53.9	539.4	12.97	-136.9	0	70.9	29.0	32.6	0	0	0	0	0	26.3	27.8	0.0
2019 02/12 17:00	26.3	100.4	238.6	20.2	29.61	54.1	464.8	12.97	-136.7	0	70.9	29.0	33.9	0	0	0	0	0	26.3	27.8	0.0
2019 02/12 17:15	26.1	100.4	241.6	22.5	29.61	54.4	290.1	12.97	-136.7	0	71.1	29.0	33.3	0	0	0	0	0	26.3	27.8	0.0
2019 02/12 17:30	25.9	100.2	240.7	22.6	29.61	54.4	162.5	13.00	-136.7	0	-997.0	-996.0	32.5	0	0	0	0	0	26.3	27.8	0.0
2019 02/12 17:45	25.7	100.8	222.2	23.6	29.61	54.6	33.6	13.00	-136.6	0	71.4	29.0	33.0	0	0	0	0	0	26.3	27.8	0.0
2019 02/12 18:00	25.7	100.9	244.3	23.5	29.61	54.8	1.7	12.98	-136.6	0	70.9	29.0	32.6	0	0	0	0	0	26.3	27.8	0.0
2019 02/12 18:15	25.6	100.2	196.4	22.6	29.61	54.9	0.0	13.00	-136.6	0	71.3	29.0	32.3	0	0	0	0	0	26.3	27.8	0.0
2019 02/12 18:30	25.6	100.0	229.0	21.9	29.61	55.0	0.0	13.01	-136.6	0	-997.0	-996.0	32.0	0	0	0	0	0	26.3	27.8	0.0
2019 02/12 18:45	25.5	100.1	218.7	22.9	29.61	55.1	0.0	12.99	-136.6	0	71.5	29.0	32.5	0	0	0	0	0	26.3	27.8	0.0
2019 02/12 19:00	25.5	100.2	241.0	22.1	29.61	55.2	0.0	12.98	-136.6	0	72.2	29.0	32.2	0	0	0	0	0	26.3	27.8	0.0
2019 02/12 19:15	25.6	100.2	221.2	20.0	29.61	55.2	0.0	13.01	-136.6	0	72.4	29.0	32.2	0	0	0	0	0	26.3	27.8	0.0
2019 02/12 19:30	25.6	100.2	253.4	18.8	29.60	55.3	0.0	13.00	-136.6	0	-997.0	-996.0	32.1	0	0	0	0	0	26.3	27.8	0.0
2019 02/12 19:45	25.6	100.1	163.4	22.7	29.60	55.4	0.0	13.00	-136.6	0	72.4	29.0	32.2	0	0	0	0	0	26.3	27.8	0.0
2019 02/12 20:00	25.6	100.2	221.5	20.9	29.60	55.4	0.0	13.01	-136.6	0	72.4	29.0	31.6	0	0	0	0	0	26.3	27.8	0.0
2019 02/12 20:15	25.6	100.1	216.6	23.5	29.59	55.4	-0.3	12.97	-136.6	0	72.4	29.0	32.0	0	0	0	0	0	26.3	27.8	0.0
2019 02/12 20:30	25.7	100.1	206.7	21.9	29.60	55.4	0.0	13.01	-136.6	0	-997.0	-996.0	31.5	0	0	0	0	0	26.3	27.8	0.0
2019 02/12 20:45	25.7	100.1	241.1	26.4	29.59	55.6	0.0	12.99	-136.6	0	72.5	29.0	32.0	0	0	0	0	0	26.3	27.8	0.0
2019 02/12 21:00	25.7	100.2	208.8	29.2	29.59	55.6	0.0	13.01	-136.6	0	72.6	29.0	32.2	0	0	0	0	0	26.3	27.8	0.0
2019 02/12 21:15	25.7	100.2	177.1	27.2	29.59	55.6	0.0	12.99	-136.6	0	72.6	29.0	32.1	0	0	0	0	0	26.3	27.8	0.0
2019 02/12 21:30	25.8	100.2	240.7	25.2	29.59	55.6	0.0	12.99	-136.6	0	-997.0	-996.0	32.4	0	0	0	0	0	26.3	27.8	0.0
2019 02/12 21:45	25.8	100.3	222.3	23.4	29.59	55.5	-0.3	12.98	-136.6	0	72.8	29.0	32.6	0	0	0	0	0	26.3	27.8	0.0
2019 02/12 22:00	25.8	100.2	232.4	21.2	29.58	55.5	-0.3	13.00	-136.6	0	72.9	29.0	32.5	0	0	0	0	0	26.3	27.8	0.0
2019 02/12 22:15	25.8	100.3	214.3	21.2	29.58	55.4	-0.3	12.98	-136.6	0	72.8	29.0	32.2	0	0	0	0	0	26.3	27.8	0.0
2019 02/12 22:30	25.9	100.3	222.5	22.8	29.57	55.4	0.0	12.99	-136.6	0	-997.0	-996.0	31.8	0	0	0	0	0	26.3	27.8	0.0
2019 02/12 22:45	25.8	100.2	220.7	21.9	29.57	55.4	0.0	12.99	-136.6	0	72.6	29.0	31.8	0	0	0	0	0	26.3	27.8	0.0
2019 02/12 23:00	25.7	100.2	193.9	23.1	29.56	55.4	-0.3	12.99	-136.6	0	72.7	29.0	32.2	0	0	0	0	0	26.3	27.8	0.0
2019 02/12 23:15	25.7	100.2	221.3	26.0	29.55	55.4	0.0	12.97	-136.6	0	72.9	29.0	31.7	0	0	0	0	0	26.3	27.8	0.0
2019 02/12 23:30	25.7	100.2	208.5	24.9	29.55	55.4	0.0	12.99	-136.6	0	-997.0	-996.0	31.2	0	0	0	0	0	26.3	27.8	0.0
2019 02/12 23:45	25.7	100.2	228.7	24.7	29.54	55.4	-0.3	13.00	-136.6	0	73.1	29.0	31.4	0	0	0	0	0	26.3	27.8	0.0
2019 02/13 00:00	25.7	100.2	221.6	25.6	29.54	55.4	0.0	12.97	-136.6	0	73.0	29.0	31.3	0	0	0	0	0	26.3	27.8	0.0
2019 02/13 00:15	25.7	100.1	231.6	23.9	29.53	55.4	0.0	12.97	-136.6	0	73.1	29.0	31.7	0	0	0	0	0	26.3	27.8	0.0
2019 02/13 00:30	25.7	100.2	261.1	23.1	29.52	55.4	-0.3	12.97	-136.6	0	-997.0	-996.0	31.4	0	0	0	0	0	26.3	27.8	0.0
2019 02/13 00:45	25.7	100.2	262.5	21.4	29.52	55.4	0.0	12.97	-136.6	0	73.1	29.0	31.3	0	0	0	0	0	26.3	27.8	0.0
2019 02/13 01:00	25.7	101.0	235.7	21.8	29.52	55.4	0.0	13.00	-136.6	0	73.1	29.0	31.5	0	0	0	0	0	26.3	27.8	0.0
2019 02/13 01:15	25.7	100.2	221.6	24.7	29.52	55.4	-0.3	13.00	-136.6	0	73.1	29.0	31.4	0	0	0	0	0	26.3	27.8	0.0
2019 02/13 01:30	25.7	100.2	241.0	22.6	29.51	55.4	0.0	12.97	-136.6	0	-997.0	-996.0	31.2	0	0	0	0	0	26.3	27.8	0.0
2019 02/13 01:45	25.6	100.1	245.8	22.7	29.50	55.4	0.0	12.99	-136.6	0	73.4	29.0	31.3	0	0	0	0	0	26.3	27.8	0.0
2019 02/13 02:00	25.6	100.2	229.4	24.1	29.49	55.4	0.0	13.00	-136.6	0	73.5	28.1	31.5	0	0	0	0	0	26.3	27.8	0.0
2019 02/13 02:15	25.6	100.2	221.8	22.5	29.49	55.4	0.0	12.98	-136.6	0	73.3	29.0	31.3	0	0	0	0	0	26.3	27.8	0.0
2019 02/13 02:30	25.6	100.5	248.3	22.4	29.48	55.4	0.0	13.00	-136.6	0	-997.0	-996.0	31.2	0	0	0	0	0	26.3	27.8	0.0
2019 02/13 02:45	25.6	100.2	259.0	22.8	29.48	55.4	0.0	12.98	-136.6	0	73.4	29.0	31.2	0	0	0	0	0	26.3	27.8	0.0
2019 02/13 03:00	25.7	100.2	242.1	21.9	29.48	55.5	-0.3	13.01	-136.6	0	73.4	29.0	31.2	0	0	0	0	0	26.3	27.8	0.0
2019 02/13 03:15	25.6	100.3	230.4	22.0	29.47	55.6	-0.3	13.00	-136.6	0	73.3	29.0	30.9	0	0	0	0	0	26.3	27.8	0.0
2019 02/13 03:30	25.6	100.0	232.9	22.6	29.47	55.6	0.0	12.97	-136.6	0	-997.0	-996.0	30.9	0	0	0	0	0	26.3	27.8	0.0
2019 02/13 03:45	25.6	100.2	224.3	19.9	29.46	55.6	-0.3	12.99	-136.6	0	73.8	28.1	31.1	0	0	0	0	0	26.3	27.8	0.0
2019 02/13 04:00	25.6	100.5	214.0	22.4	29.46	55.6	0.0	12.99	-136.6	0	73.7	29.0	31.2	0	0	0	0	0	26.3	27.8	0.0
2019 02/13 04:15	25.6	100.2	234.2	21.9	29.45	55.6	0.0	12.99	-136.6	0	73.8	29.0	31.3	0	0	0	0	0	26.3	27.8	0.0
2019 02/13 04:30	25.6	100.2	220.4	21.4	29.45	55.6	0.0	12.98	-136.6	0	-997.0	-996.0	31.2	0	0	0	0	0	26.3	27.8	0.0
2019 02/13 04:45	25.7	100.2	237.6	20.8	29.45	55.6	0.0	12.98	-136.6	0	73.5	29.0	31.2	0	0	0	0	0	26.3	27.8	0.0
2019 02/13 05:00	25.6	100.2	232.6	23.2	29.45	55.6	0.0	12.99	-136.6	0	73.5	29.0	31.2	0	0	0	0	0	26.3	27.8	0.0
2019 02/13 05:15	25.6	100.1	219.0	23.9	29.44	55.7	0.0	12.99	-136.6	0	73.5	29.0	31.3	0	0	0	0	0	26.3	27.8	0.0
2019 02/13 05:30	25.6	100.2	234.8	23.4	29.43	55.8	0.0	13.01	-136.6	0	-997.0	-996.0	31.3	0	0	0	0	0	26.3	27.8	0.0
2019 02/13 05:45	25.6	100.6	219.8	21.5	29.43	55.9	0.0	12.98	-136.6	0	72.6	29.0	31.7	0	0	0	0	0	26.3	27.8	0.0
2019 02/13 06:00	25.9	100.2	226.0	22.5	29.44	55.8	0.0	12.99	-136.6	0	72.5	29.0	32.1	0	0	0	0	0	26.3	27.8	0.0
2019 02/13 06:15	25.7	100.2	239.9	19.1	29.44	55.8	-0.3	12.99	-136.6	0	72.6	29.0	32.1	0	0	0	0	0	26.3	27.8	0.0
2019 02/13 06:30	25.8	100.4	230.3	20.7	29.43	55.9	0.0	12.99	-136.6	0	-997.0	-996.0	32.3	0	0	0	0	0	26.3	27.8	0.0
2019 02/13 06:45	26.2	100.3	241.1	21.2	29.43	55.9	3.7	13.00	-136.6	0	71.4	29.0	32.2	0	0	0	0	0	26.3	27.8	0.0
2019 02/13 07:00	25.9	100.4	244.2	21.4	29.43	55.9	64.5	12.98	-136.5	0	70.4	29.0	32.5	0	0	0	0	0	26.3	27.8	0.0
2019 02/13 07:15	26.1	100.4	245.1	15.8	29.43	55.9	234.4	12.99	-136.5	0	-999.9	-999.9	32.6	0	0	0	0	0	26.3	27.8	0.0
2019 02/13 07:30	26.1	100.3	246.7	17.1	29.43	55.9	395.6	13.00	-136.5	0	-997.0	-996.0	32.4	0	0	0	0	0	26.3	27.8	0.0
2019 02/13 07:45	26.1	100.4	248.7	16.4	29.43	55.9	553.7	13.01	-136.5	0	73.5	29.0	33.0	0	0	0	0	0	26.3	27.8	0.0
2019 02/13 08:00	26.3	100.4	192.2	14.4	29.43	55.9	755.0	12.99	-136.6	0	73.9	29.9	33.6	0	0	0	0	0	26.3	27.8	0.0
2019 02/13 08:15	26.7	100.6	238.5	14.2	29.43	55.9	820.0	13.02	-136.5	0	74.0	30.8	34.9	0	0	0	0	0	26.3	27.8	0.0
2019 02/13 08:30	27.2	100.6	243.7	16.5	29.43	56.1	837.0	13.01	-136.5	0	-997.0	-996.0	34.6	0	0	0	0	0	26.3	27.8	0.0
2019 02/13 08:45	27.8	100.6	243.6	15.3	29.43	56.1	759.0	13.00	-136.5	0	73.9	30.8	35.5	0	0	0	0	0	26.3	27.8	0.0
2019 02/13 09:00	28.1	100.8	236.4	14.2	29.43	56.1	798.0	12.99	-136.5	0	73.9	30.8	34.5	0	0	0	0	0	26.3	27.8	0.0
2019 02/13 09:15	28.4	101.0	255.9	14.4	29.43	56.1	812.0	12.99	-136.5	0	73.7	31.7	35.1	0	0	0	0	0	26.3	27.8	0.0
2019 02/13 09:30	28.6	100.9	239.3	15.8	29.43	56.2	807.0	12.99	-136.5	0	-997.0	-996.0	35.3	0	0	0	0	0	26.3	27.8	0.0
2019 02/13 09:45	28.9	101.1	241.3	16.2	29.43	56.3	850.0	12.99	-136.5	0	73.7	31.7	36.8	0	0	0	0	0	26.3	27.8	0.0
2019 02/13 10:00	29.4	101.1	242.4	15.1	29.43	56.3	847.0	12.99	-136.5	0	73.5	32.6	36.7	0	0	0	0	0	26.3	27.8	0.0
2019 02/13 10:15	29.7	101.3	240.5	14.1	29.43	56.5	860.0	13.00	-136.4	0	73.3	32.6	36.7	0	0	0	0	0	26.3	27.8	0.0
2019 02/13 10:30	30.2	101.3	241.7	12.7	29.44	56.5	856.0	12.99	-136.4	0	-997.0	-996.0	37.1	0	0	0	0	0	26.3	27.8	0.0
2019 02/13 10:45	30.7	101.2	243.6	12.7	29.44	56.7	873.0	12.99	-136.4	0	73.0	33.5	36.7	0	0	0	0	0	26.3	27.8	0.0
2019 02/13 11:00	31.2	101.4	242.1	17.1	29.45	56.7	856.0	12.98	-136.4	0	73.3	33.5	36.8	0	0	0	0	0	26.3	27.8	0.0
2019 02/13 11:15	31.3	101.4	237.6	11.7	29.45	56.9	873.0	12.97	-136.4	0	73.3	33.5	37.1	0	0	0	0	0	26.3	27.8	0.0
2019 02/13 11:30	31.6	101.4	234.8	15.4	29.45	56.9	872.0	13.01	-136.2	0	-997.0	-996.0	37.1	0	0	0	0	0	26.3	27.8	0.0
2019 02/13 11:45	31.7	101.6	243.2	12.6	29.45	57.1	868.0	12.99	-136.2	0	73.4	33.5	37.3	0	0	0	0	0	26.3	27.8	0.0
2019 02/13 12:00	31.8	101.6	244.9	15.5	29.45	57.2	873.0	12.99	-136.1	0	73.1	33.5	37.5	0	0	0	0	0	26.3	27.8	0.0
2019 02/13 12:15	31.9	101.5	237.2	13.9	29.45	57.4	875.0	12.98	-136.1	0	72.6	34.4	37.5	0	0	0	0	0	26.3	27.8	0.0
2019 02/13 12:30	31.8	101.6	257.5	12.4	29.45	57.6	868.0	12.99	-136.1	0	-997.0	-996.0	37.7	0	0	0	0	0	26.3	27.8	0.0
2019 02/13 12:45	31.9	101.6	266.7	13.8	29.45	57.6	883.0	13.00	-136.0	0	73.1	34.4	37.9	0	0	0	0	0	26.3	27.8	0.0
2019 02/13 13:00	31.9	101.6	236.3	12.0	29.45	57.8	879.0	13.00	-136.0	0	72.6	34.4	37.8	0	0	0	0	0	26.3	27.8	0.0
2019 02/13 13:15	32.1	101.6	242.5	8.8	29.45	58.0	847.0	12.99	-136.0	0	73.0	33.5	36.7	0	0	0	0	0	26.3	27.8	0.0
2019 02/13 13:30	31.9	101.6	264.8	11.3	29.45	58.2	871.0	13.00	-135.9	0	-997.0	-996.0	37.1	0	0	0	0	0	26.3	27.8	0.0
2019 02/13 13:45	31.9	101.5	230.2	11.8	29.45	58.2	879.0	13.01	-135.8	0	72.7	34.4	37.1	0	0	0	0	0	26.3	27.8	0.0
2019 02/13 14:00	31.9	101.8	297.1	13.1	29.45	58.4	852.0	12.99	-135.8	0	72.8	34.4	36.9	0	0	0	0	0	26.3	27.8	0.0
2019 02/13 14:15	31.9	101.6	245.3	12.5	29.45	58.6	839.0	12.99	-135.8	0	73.0	34.4	36.2	0	0	0	0	0	26.3	27.8	0.0
2019 02/13 14:30	31.9	101.6	233.0	10.1	29.45	58.8	850.0	13.00	-135.6	0	-997.0	-996.0	36.2	0	0	0	0	0	26.3	27.8	0.0
2019 02/13 14:45	31.9	101.7	248.6	13.1	29.45	58.9	835.0	13.00	-135.5	0	73.0	34.4	36.1	0	0	0	0	0	26.3	27.8	0.0
2019 02/13 15:00	32.1	101.7	226.2	13.9	29.45	59.1	835.0	13.00	-135.5	0	73.2	34.4	36.2	0	0	0	0	0	26.3	27.8	0.0
2019 02/13 15:15	31.9	101.7	219.7	19.3	29.46	59.2	818.0	12.99	-135.5	0	73.1	34.4	35.1	0	0	0	0	0	26.3	27.8	0.0
2019 02/13 15:30	31.9	101.7	218.4	16.4	29.46	59.3	765.0	13.01	-135.4	0	-997.0	-996.0	34.5	0	0	0	0	0	26.3	27.8	0.0
2019 02/13 15:45	32.1	101.8	213.1	15.9	29.46	59.5	783.0	12.99	-135.4	0	73.3	33.5	35.4	0	0	0	0	0	26.3	27.8	0.0
2019 02/13 16:00	32.1	101.8	205.3	19.8	29.46	59.5	756.0	12.97	-135.3	0	73.1	34.4	37.6	0	0	0	0	0	26.3	27.8	0.0
2019 02/13 16:15	31.9	101.8	233.3	18.9	29.46	59.7	705.0	12.96	-135.3	0	73.1	34.4	38.2	0	0	0	0	0	26.3	27.8	0.0
2019 02/13 16:30	31.9	101.8	196.9	19.2	29.46	59.7	678.8	12.96	-135.3	0	-997.0	-996.0	37.9	0	0	0	0	0	26.3	27.8	0.0
2019 02/13 16:45	31.9	101.8	227.9	18.5	29.46	59.7	637.8	12.97	-135.3	0	73.1	33.5	37.0	0	0	0	0	0	26.3	27.8	0.0
2019 02/13 17:00	31.9	101.7	191.5	20.6	29.46	59.7	583.2	12.97	-135.3	0	71.9	33.5	36.3	0	0	0	0	0	26.3	27.8	0.0
2019 02/13 17:15	31.9	101.8	217.1	15.5	29.46	59.7	422.4	12.99	-135.3	0	71.9	33.5	35.4	0	0	0	0	0	26.3	27.8	0.0
2019 02/13 17:30	31.9	101.7	211.9	17.2	29.46	59.7	214.4	13.00	-135.3	0	-997.0	-996.0	36.2	0	0	0	0	0	26.3	27.8	0.0
2019 02/13 17:45	31.9	101.8	183.7	19.1	29.46	59.7	44.1	12.99	-135.3	0	72.8	32.6	35.0	0	0	0	0	0	26.3	27.8	0.0
2019 02/13 18:00	31.9	101.8	206.0	17.1	29.46	59.7	3.4	12.99	-135.3	0	72.8	32.6	36.4	0	0	0	0	0	26.3	27.8	0.0
2019 02/13 18:15	32.2	101.9	189.4	16.1	29.46	59.7	0.0	12.99	-135.4	0	72.8	32.6	35.2	0	0	0	0	0	26.3	27.8	0.0
2019 02/13 18:30	31.9	101.9	203.2	18.4	29.47	59.7	0.0	12.99	-135.4	0	-997.0	-996.0	35.3	0	0	0	0	0	26.3	27.8	0.0
2019 02/13 18:45	31.9	101.7	210.2	17.2	29.47	59.5	0.0	12.98	-135.4	0	72.8	32.6	35.3	0	0	0	0	0	26.3	27.8	0.0
2019 02/13 19:00	31.9	101.8	162.2	13.2	29.46	59.5	0.0	12.98	-135.4	0	72.8	32.6	35.2	0	0	0	0	0	26.3	27.8	0.0
2019 02/13 19:15	31.9	101.8	174.0	10.7	29.46	59.5	0.0	12.99	-135.5	0	72.8	32.6	35.4	0	0	0	0	0	26.3	27.8	0.0
2019 02/13 19:30	31.9	102.5	165.7	12.5	29.46	59.5	0.0	12.99	-135.5	0	-997.0	-996.0	35.0	0	0	0	0	0	26.3	27.8	0.0
2019 02/13 19:45	31.9	101.9	165.5	8.3	29.46	59.5	0.0	12.99	-135.5	0	72.7	32.6	35.0	0	0	0	0	0	26.3	27.8	0.0
2019 02/13 20:00	31.9	101.8	138.0	8.9	29.45	59.4	-0.3	12.98	-135.5	0	72.8	31.7	35.1	0	0	0	0	0	26.3	27.8	0.0
2019 02/13 20:15	31.7	101.9	119.7	5.9	29.45	59.4	0.0	12.99	-135.5	0	72.7	31.7	34.6	0	0	0	0	0	26.3	27.8	0.0
2019 02/13 20:30	31.3	101.8	145.2	9.7	29.45	59.4	0.0	12.98	-135.5	0	-997.0	-996.0	34.2	0	0	0	0	0	26.3	27.8	0.0
2019 02/13 20:45	31.3	101.8	87.7	9.2	29.45	59.3	-0.3	13.00	-135.5	0	72.6	31.7	34.6	0	0	0	0	0	26.3	27.8	0.0
2019 02/13 21:00	30.4	101.8	137.7	8.2	29.45	59.3	0.0	12.97	-135.5	0	72.6	31.7	34.2	0	0	0	0	0	26.3	27.8	0.0
2019 02/13 21:15	30.0	102.0	85.0	5.2	29.45	59.3	-0.3	12.99	-135.5	0	72.5	31.7	34.1	0	0	0	0	0	26.3	27.8	0.0
2019 02/13 21:30	30.2	101.9	117.6	4.7	29.45	59.3	0.0	13.01	-135.5	0	-997.0	-996.0	34.3	0	0	0	0	0	26.3	27.8	0.0
2019 02/13 21:45	29.6	102.1	114.5	10.7	29.45	59.3	0.0	12.99	-135.5	0	72.4	31.7	34.1	0	0	0	0	0	26.3	27.8	0.0
2019 02/13 22:00	29.1	102.1	105.1	13.1	29.44	59.3	0.0	12.99	-135.5	0	72.4	31.7	34.0	0	0	0	0	0	26.3	27.8	0.0
2019 02/13 22:15	28.8	102.1	124.5	12.1	29.44	59.4	-0.3	13.01	-135.5	0	72.4	31.7	34.3	0	0	0	0	0	26.3	27.8	0.0
2019 02/13 22:30	28.8	102.1	111.3	14.5	29.43	59.5	0.0	13.01	-135.4	0	-997.0	-996.0	33.4	0	0	0	0	0	26.3	27.8	0.0
2019 02/13 22:45	28.3	102.2	121.3	13.5	29.42	59.5	0.0	12.98	-135.4	0	72.3	31.7	34.1	0	0	0	0	0	26.3	27.8	0.0
2019 02/13 23:00	28.4	102.4	91.1	17.9	29.42	59.5	-0.3	13.00	-135.4	0	72.4	30.8	33.9	0	0	0	0	0	26.3	27.8	0.0
2019 02/13 23:15	28.3	102.2	103.3	28.9	29.41	59.5	0.0	12.99	-135.4	0	72.3	30.8	33.3	0	0	0	0	0	26.3	27.8	0.0
2019 02/13 23:30	28.6	102.2	99.6	31.2	29.41	59.6	0.0	13.00	-135.3	0	-997.0	-996.0	33.2	0	0	0	0	0	26.3	27.8	0.0
2019 02/13 23:45	28.1	102.2	98.7	34.0	29.40	59.7	0.0	12.99	-135.3	0	72.2	30.8	33.0	0	0	0	0	0	26.3	27.8	0.0
2019 02/14 00:00	28.1	102.0	91.9	35.3	29.39	59.8	-0.3	12.98	-135.1	0	72.2	30.8	33.3	0	0	0	0	0	26.3	27.8	0.0
2019 02/14 00:15	27.9	101.8	102.4	35.9	29.38	59.9	0.0	13.01	-135.0	0	72.2	30.8	33.2	0	0	0	0	0	26.3	27.8	0.0
2019 02/14 00:30	28.1	101.7	98.0	37.6	29.38	60.0	-0.3	12.99	-134.9	0	-997.0	-996.0	32.6	0	0	0	0	0	26.3	27.8	0.0
2019 02/14 00:45	27.8	101.5	94.0	37.9	29.37	60.1	0.0	12.98	-134.8	0	72.0	30.8	33.3	0	0	0	0	0	26.3	27.8	0.0
2019 02/14 01:00	27.4	101.3	96.1	39.6	29.37	60.3	0.0	12.99	-134.8	0	72.0	30.8	32.5	0	0	0	0	0	26.3	27.8	0.0
2019 02/14 01:15	27.3	101.1	85.5	40.0	29.36	60.3	0.0	13.02	-134.6	0	72.1	30.8	32.7	0	0	0	0	0	26.3	27.8	0.0
2019 02/14 01:30	27.2	101.8	91.0	36.7	29.36	60.5	-0.3	13.01	-134.5	0	-997.0	-996.0	32.4	0	0	0	0	0	26.3	27.8	0.0
2019 02/14 01:45	27.4	101.0	98.4	43.9	29.35	60.6	0.0	12.99	-134.4	0	72.1	29.9	32.4	0	0	0	0	0	26.3	27.8	0.0
2019 02/14 02:00	27.2	101.2	85.3	37.6	29.36	60.7	0.0	12.99	-134.4	0	72.1	29.9	32.1	0	0	0	0	0	26.3	27.8	0.0
2019 02/14 02:15	27.0	101.2	91.0	39.5	29.35	60.8	0.0	13.01	-134.3	0	72.0	29.9	32.0	0	0	0	0	0	26.3	27.8	0.0
2019 02/14 02:30	26.8	100.8	88.1	34.2	29.35	60.9	-0.3	12.99	-134.3	0	-997.0	-996.0	31.7	0	0	0	0	0	26.3	27.8	0.0
2019 02/14 02:45	26.4	100.5	89.4	30.6	29.34	60.9	0.0	13.01	-134.3	0	72.0	29.0	32.1	0	0	0	0	0	26.3	27.8	0.0
2019 02/14 03:00	26.2	101.1	101.4	26.4	29.33	60.9	-0.3	12.99	-134.3	0	72.0	29.0	32.1	0	0	0	0	0	26.3	27.8	0.0
2019 02/14 03:15	26.1	100.5	96.3	29.8	29.33	60.9	2.0	12.98	-134.3	0	72.2	29.0	32.0	0	0	0	0	0	26.3	27.8	0.0
2019 02/14 03:30	25.9	100.5	96.6	31.1	29.31	60.9	3.1	13.01	-134.3	0	-997.0	-996.0	32.2	0	0	0	0	0	26.3	27.8	0.0
2019 02/14 03:45	26.1	100.4	95.9	34.5	29.31	60.9	0.0	13.00	-134.3	0	72.0	29.0	31.5	0	0	0	0	0	26.3	27.8	0.0
2019 02/14 04:00	25.6	100.3	94.7	33.5	29.30	60.9	1.7	12.99	-134.3	0	72.0	28.1	31.4	0	0	0	0	0	26.3	27.8	0.0
2019 02/14 04:15	25.2	100.1	89.9	35.4	29.29	60.9	2.0	13.00	-134.3	0	72.1	28.1	31.2	0	0	0	0	0	26.3	27.8	0.0
2019 02/14 04:30	24.8	99.9	92.8	40.1	29.27	60.9	-0.3	12.95	-134.4	0	-997.0	-996.0	30.6	0	0	0	0	0	26.3	27.8	0.0
2019 02/14 04:45	24.4	99.5	92.7	42.5	29.26	60.9	0.0	12.97	-134.4	0	72.3	27.2	30.2	0	0	0	0	0	26.3	27.8	0.0
2019 02/14 05:00	23.9	99.4	91.4	40.5	29.26	60.9	0.0	12.97	-134.4	0	72.2	27.2	30.6	0	0	0	0	0	26.3	27.8	0.0
2019 02/14 05:15	23.6	99.3	97.8	41.4	29.25	60.8	0.0	12.99	-134.4	0	71.9	27.2	29.9	0	0	0	0	0	26.3	27.8	0.0
2019 02/14 05:30	23.4	99.3	102.5	39.4	29.24	60.8	0.0	12.98	-134.4	0	-997.0	-996.0	30.2	0	0	0	0	0	26.3	27.8	0.0
2019 02/14 05:45	23.1	99.4	91.6	39.8	29.24	60.8	0.0	12.99	-134.4	0	72.0	26.3	30.4	0	0	0	0	0	26.3	27.8	0.0
2019 02/14 06:00	22.8	98.9	96.3	42.0	29.23	60.7	0.0	13.01	-134.4	0	72.0	25.4	29.9	0	0	0	0	0	26.3	27.8	0.0
2019 02/14 06:15	22.4	98.9	96.4	42.5	29.22	60.7	-0.3	12.99	-134.4	0	72.1	25.4	29.5	0	0	0	0	0	26.3	27.8	0.0
2019 02/14 06:30	22.0	98.6	91.9	41.6	29.21	60.7	0.0	12.99	-134.4	0	-997.0	-996.0	30.0	0	0	0	0	0	26.3	27.8	0.0
2019 02/14 06:45	21.6	98.6	100.4	42.6	29.20	60.7	2.0	12.98	-134.5	0	72.0	24.5	29.1	0	0	0	0	0	26.3	27.8	0.0
2019 02/14 07:00	21.9	99.0	94.9	40.1	29.19	60.6	50.9	12.99	-134.5	0	72.0	23.6	28.4	0	0	0	0	0	26.3	27.8	0.0
2019 02/14 07:15	21.2	98.2	94.9	38.9	29.19	60.5	168.6	12.97	-134.5	0	72.0	23.6	27.8	0	0	0	0	0	26.3	27.8	0.0
2019 02/14 07:30	20.4	99.1	100.6	39.3	29.19	60.5	292.1	12.99	-134.5	0	-997.0	-996.0	27.7	0	0	0	0	0	26.3	27.8	0.0
2019 02/14 07:45	20.7	98.4	97.8	34.2	29.19	60.5	383.7	12.98	-134.6	0	72.0	22.7	27.0	0	0	0	0	0	26.3	27.8	0.0
2019 02/14 08:00	20.7	98.3	92.9	33.4	29.18	60.4	426.4	13.00	-134.6	0	72.0	22.7	28.0	0	0	0	0	0	26.3	27.8	0.0
2019 02/14 08:15	20.7	98.4	85.1	22.7	29.18	60.3	404.0	13.01	-134.6	0	72.1	21.8	27.5	0	0	0	0	0	26.3	27.8	0.0
2019 02/14 08:30	20.9	98.5	105.0	33.1	29.17	60.3	563.8	12.99	-134.8	0	-997.0	-996.0	26.6	0	0	0	0	0	26.3	27.8	0.0
2019 02/14 08:45	20.3	98.0	82.8	31.8	29.16	60.1	762.0	13.00	-134.8	0	72.3	21.8	28.5	0	0	0	0	0	26.3	27.8	0.0
2019 02/14 09:00	19.7	97.7	97.6	39.5	29.14	60.1	776.0	12.99	-134.9	0	72.3	21.8	27.7	0	0	0	0	0	26.3	27.8	0.0
2019 02/14 09:15	20.1	98.2	107.8	33.4	29.12	59.9	734.0	12.99	-135.0	0	72.3	21.8	26.7	0	0	0	0	0	26.3	27.8	0.0
2019 02/14 09:30	20.1	97.7	101.9	31.3	29.12	59.7	725.0	12.99	-135.1	0	-997.0	-996.0	27.6	0	0	0	0	0	26.3	27.8	0.0
2019 02/14 09:45	19.1	97.4	112.9	33.2	29.12	59.5	651.4	12.99	-135.1	0	73.1	20.9	26.7	0	0	0	0	0	26.3	27.8	0.0
2019 02/14 10:00	19.4	97.8	78.5	24.4	29.13	59.5	816.0	12.98	-135.3	0	71.9	21.8	29.9	0	0	0	0	0	26.3	27.8	0.0
2019 02/14 10:15	19.9	98.0	84.6	18.9	29.13	59.4	803.0	12.98	-135.3	0	73.0	21.8	30.4	0	0	0	0	0	26.3	27.8	0.0
2019 02/14 10:30	20.5	98.3	101.1	21.5	29.15	59.5	737.0	12.98	-135.3	0	-997.0	-996.0	28.1	0	0	0	0	0	26.3	27.8	0.0
2019 02/14 10:45	20.9	98.4	157.0	16.9	29.14	59.5	698.2	12.99	-135.1	0	71.1	21.8	27.6	0	0	0	0	0	26.3	27.8	0.0
2019 02/14 11:00	21.9	98.5	185.5	32.0	29.13	59.5	702.0	12.99	-135.1	0	70.6	21.8	26.6	0	0	0	0	0	26.3	27.8	0.0
2019 02/14 11:15	23.8	99.2	174.3	31.8	29.13	59.6	759.0	12.98	-135.0	0	71.9	22.7	26.1	0	0	0	0	0	26.3	27.8	0.0
2019 02/14 11:30	25.8	99.6	158.2	29.3	29.11	59.5	795.0	12.97	-135.0	0	-997.0	-996.0	27.9	0	0	0	0	0	26.3	27.8	0.0
2019 02/14 11:45	27.7	100.6	176.9	27.5	29.11	59.4	809.0	12.97	-135.1	0	73.1	25.4	31.4	0	0	0	0	0	26.3	27.8	0.0
2019 02/14 12:00	29.1	101.0	168.3	26.1	29.10	59.3	863.0	13.01	-135.3	0	73.0	25.4	32.7	0	0	0	0	0	26.3	27.8	0.0
2019 02/14 12:15	30.5	101.1	187.8	39.1	29.08	59.2	873.0	12.98	-135.3	0	72.8	27.2	31.8	0	0	0	0	0	26.3	27.8	0.0
2019 02/14 12:30	31.4	101.4	207.1	26.8	29.08	59.1	895.0	13.01	-135.4	0	-997.0	-996.0	35.1	0	0	0	0	0	26.3	27.8	0.0
2019 02/14 12:45	31.8	101.5	208.5	24.0	29.09	59.0	841.0	13.01	-135.4	0	72.8	29.9	34.9	0	0	0	0	0	26.3	27.8	0.0
2019 02/14 13:00	31.9	101.6	248.0	28.0	29.08	58.9	740.0	13.00	-135.5	0	73.8	31.7	31.2	0	0	0	0	0	26.3	27.8	0.0
2019 02/14 13:15	31.9	102.1	222.9	26.4	29.09	58.6	678.9	12.99	-135.5	0	-999.9	-999.9	33.6	0	0	0	0	0	26.3	27.8	0.0
2019 02/14 13:30	31.9	102.0	202.3	38.1	29.10	58.4	705.0	12.99	-135.6	0	-997.0	-996.0	35.7	0	0	0	0	0	26.3	27.8	0.0
2019 02/14 13:45	31.9	102.0	202.5	42.2	29.09	58.4	747.0	13.01	-135.6	0	89.7	33.5	36.2	0	0	0	0	0	26.3	27.8	0.0
2019 02/14 14:00	31.9	101.8	187.9	35.4	29.07	58.2	855.0	13.00	-135.8	0	71.5	34.4	38.5	0	0	0	0	0	26.3	27.8	0.0
2019 02/14 14:15	31.9	101.8	227.1	30.0	29.06	58.0	817.0	12.99	-135.8	0	71.9	34.4	37.8	0	0	0	0	0	26.3	27.8	0.0
2019 02/14 14:30	32.1	101.8	218.0	28.2	29.05	57.8	837.0	12.99	-135.9	0	-997.0	-996.0	38.0	0	0	0	0	0	26.3	27.8	0.0
2019 02/14 14:45	31.9	101.8	268.0	34.6	29.05	57.6	740.0	13.00	-135.9	0	74.2	33.5	36.7	0	0	0	0	0	26.3	27.8	0.0
2019 02/14 15:00	31.9	101.8	240.2	41.2	29.06	57.4	723.0	13.01	-136.0	0	35.7	32.6	36.3	0	0	0	0	0	26.3	27.8	0.0
2019 02/14 15:15	31.9	102.5	238.5	37.8	29.07	57.1	776.0	12.99	-136.1	0	71.5	32.6	35.7	0	0	0	0	0	26.3	27.8	0.0
2019 02/14 15:30	31.7	101.9	243.1	35.9	29.08	56.9	875.0	13.00	-136.1	0	-997.0	-996.0	37.7	0	0	0	0	0	26.3	27.8	0.0
2019 02/14 15:45	31.7	102.0	239.9	40.2	29.10	56.7	812.0	13.00	-136.2	0	75.0	32.6	37.0	0	0	0	0	0	26.3	27.8	0.0
2019 02/14 16:00	31.6	101.9	242.7	31.6	29.13	56.7	734.0	12.99	-136.2	0	75.0	31.7	36.1	0	0	0	0	0	26.3	27.8	0.0
2019 02/14 16:15	31.1	102.1	254.8	26.2	29.15	56.7	721.0	13.00	-136.2	0	74.8	31.7	35.0	0	0	0	0	0	26.3	27.8	0.0
2019 02/14 16:30	30.2	102.1	272.0	37.1	29.14	56.7	617.1	12.98	-136.2	0	-997.0	-996.0	34.8	0	0	0	0	0	26.3	27.8	0.0
2019 02/14 16:45	29.4	102.3	243.3	31.9	29.15	56.7	475.0	13.00	-136.2	0	74.9	29.9	33.9	0	0	0	0	0	26.3	27.8	0.0
2019 02/14 17:00	28.3	102.3	244.6	29.6	29.16	56.7	551.3	13.01	-136.2	0	74.8	29.0	32.8	0	0	0	0	0	26.3	27.8	0.0
2019 02/14 17:15	27.4	102.3	259.5	25.5	29.18	56.7	376.3	13.01	-136.2	0	74.8	29.0	32.6	0	0	0	0	0	26.3	27.8	0.0
2019 02/14 17:30	26.8	102.4	247.7	32.6	29.17	56.7	259.9	12.99	-136.2	0	-997.0	-996.0	32.4	0	0	0	0	0	26.3	27.8	0.0
2019 02/14 17:45	26.2	102.5	240.1	30.7	29.17	56.7	59.7	12.99	-136.2	0	90.9	27.2	32.2	0	0	0	0	0	26.3	27.8	0.0
2019 02/14 18:00	25.5	102.2	216.1	32.9	29.17	56.7	4.8	12.98	-136.2	0	75.0	27.2	31.5	0	0	0	0	0	26.3	27.8	0.0
2019 02/14 18:15	25.0	101.4	208.0	31.9	29.17	56.7	0.3	12.97	-136.2	0	74.8	27.2	31.7	0	0	0	0	0	26.3	27.8	0.0
2019 02/14 18:30	24.5	100.8	251.5	28.0	29.18	56.6	0.0	12.99	-136.2	0	-997.0	-996.0	30.9	0	0	0	0	0	26.3	27.8	0.0
2019 02/14 18:45	24.1	100.4	257.1	25.2	29.19	56.5	0.0	12.99	-136.4	0	74.6	27.2	31.2	0	0	0	0	0	26.3	27.8	0.0
2019 02/14 19:00	23.9	100.2	243.2	27.9	29.20	56.5	0.0	12.97	-136.4	0	145.1	27.2	30.9	0	0	0	0	0	26.3	27.8	0.0
2019 02/14 19:15	23.9	100.0	218.1	26.7	29.20	56.5	0.0	12.98	-136.4	0	74.7	27.2	31.2	0	0	0	0	0	26.3	27.8	0.0
2019 02/14 19:30	23.8	99.9	229.0	26.6	29.21	56.5	0.0	13.01	-136.4	0	-997.0	-996.0	30.6	0	0	0	0	0	26.3	27.8	0.0
2019 02/14 19:45	23.8	99.7	247.4	22.6	29.21	56.5	0.0	12.99	-136.4	0	74.6	27.2	30.7	0	0	0	0	0	26.3	27.8	0.0
2019 02/14 20:00	23.8	100.2	241.3	19.9	29.22	56.3	0.0	13.01	-136.4	0	74.4	26.3	29.1	0	0	0	0	0	26.3	27.8	0.0
2019 02/14 20:15	23.8	99.5	222.2	19.5	29.22	56.3	0.0	13.01	-136.4	0	74.6	25.4	28.1	0	0	0	0	0	26.3	27.8	0.0
2019 02/14 20:30	23.8	99.5	198.0	25.8	29.21	56.3	0.0	13.00	-136.5	0	-997.0	-996.0	28.8	0	0	0	0	0	26.3	27.8	0.0
2019 02/14 20:45	23.5	99.5	209.6	32.0	29.20	56.2	0.0	13.00	-136.5	0	74.6	26.3	29.8	0	0	0	0	0	26.3	27.8	0.0
2019 02/14 21:00	23.6	99.3	205.0	33.2	29.20	56.1	0.0	13.01	-136.5	0	74.5	27.2	31.3	0	0	0	0	0	26.3	27.8	0.0
2019 02/14 21:15	23.6	99.3	201.3	38.8	29.20	55.9	0.0	13.02	-136.5	0	74.3	28.1	29.5	0	0	0	0	0	26.3	27.8	0.0
2019 02/14 21:30	23.6	99.3	204.2	39.9	29.21	55.8	0.0	12.99	-136.6	0	-997.0	-996.0	30.5	0	0	0	0	0	26.3	27.8	0.0
2019 02/14 21:45	23.8	99.4	198.7	34.1	29.21	55.6	0.0	12.99	-136.6	0	74.4	28.1	32.3	0	0	0	0	0	26.3	27.8	0.0
2019 02/14 22:00	23.8	99.4	202.7	31.3	29.22	55.4	0.0	12.99	-136.6	0	74.3	28.1	31.4	0	0	0	0	0	26.3	27.8	0.0
2019 02/14 22:15	23.8	99.5	196.8	34.6	29.21	55.2	0.0	12.99	-136.7	0	74.4	29.0	31.3	0	0	0	0	0	26.3	27.8	0.0
2019 02/14 22:30	23.8	99.5	196.6	41.3	29.21	55.0	0.0	13.00	-136.7	0	-997.0	-996.0	32.5	0	0	0	0	0	26.3	27.8	0.0
2019 02/14 22:45	23.8	99.4	201.7	39.5	29.21	54.8	0.0	13.00	-136.7	0	74.5	29.0	32.1	0	0	0	0	0	26.3	27.8	0.0
2019 02/14 23:00	23.8	99.5	231.2	27.8	29.23	54.8	0.0	13.00	-136.7	0	74.1	27.2	31.1	0	0	0	0	0	26.3	27.8	0.0
2019 02/14 23:15	23.9	99.5	227.0	32.5	29.23	54.6	-0.3	12.99	-136.9	0	72.9	27.2	30.4	0	0	0	0	0	26.3	27.8	0.0
2019 02/14 23:30	23.9	99.6	202.2	44.0	29.21	54.6	0.0	12.99	-136.9	0	-997.0	-996.0	30.2	0	0	0	0	0	26.3	27.8	0.0
2019 02/14 23:45	23.9	99.6	211.8	41.4	29.22	54.3	0.0	13.00	-136.9	0	74.8	27.2	30.2	0	0	0	0	0	26.3	27.8	0.0
2019 02/15 00:00	23.9	99.5	233.3	28.0	29.25	54.1	0.0	13.01	-136.9	0	74.6	27.2	29.7	0	0	0	0	0	26.3	27.8	0.0
2019 02/15 00:15	23.9	99.7	242.2	37.6	29.24	53.9	0.0	13.01	-136.9	0	75.3	25.4	29.6	0	0	0	0	0	26.3	27.8	0.0
2019 02/15 00:30	23.4	99.5	213.8	28.9	29.26	53.9	-0.3	12.99	-136.9	0	-997.0	-996.0	29.0	0	0	0	0	0	26.3	27.8	0.0
2019 02/15 00:45	23.0	99.5	236.1	26.4	29.27	53.7	0.0	12.99	-137.0	0	75.0	25.4	28.5	0	0	0	0	0	26.3	27.8	0.0
2019 02/15 01:00	22.7	99.3	230.3	34.6	29.25	53.7	-0.3	12.99	-137.0	0	73.1	25.4	28.5	0	0	0	0	0	26.3	27.8	0.0
2019 02/15 01:15	22.4	99.3	240.6	33.3	29.25	53.7	-0.3	13.00	-137.0	0	75.1	25.4	28.1	0	0	0	0	0	26.3	27.8	0.0
2019 02/15 01:30	22.4	99.1	232.9	28.9	29.28	53.7	6.8	12.99	-137.0	0	-997.0	-996.0	28.4	0	0	0	0	0	26.3	27.8	0.0
2019 02/15 01:45	22.4	99.1	235.0	24.5	29.29	53.5	0.0	12.98	-137.0	0	74.8	25.4	28.2	0	0	0	0	0	26.3	27.8	0.0
2019 02/15 02:00	22.4	99.0	236.0	22.4	29.30	53.5	0.0	12.97	-137.0	0	75.2	25.4	28.7	0	0	0	0	0	26.3	27.8	0.0
2019 02/15 02:15	22.3	98.9	241.4	19.8	29.31	53.5	-0.3	12.98	-137.0	0	75.0	25.4	28.5	0	0	0	0	0	26.3	27.8	0.0
2019 02/15 02:30	22.3	99.0	226.6	22.4	29.31	53.5	10.5	13.03	-137.0	0	-997.0	-996.0	28.4	0	0	0	0	0	26.3	27.8	0.0
2019 02/15 02:45	22.3	98.9	215.8	27.6	29.32	53.5	0.3	13.01	-137.0	0	75.1	25.4	28.1	0	0	0	0	0	26.3	27.8	0.0
2019 02/15 03:00	22.3	98.9	240.6	21.6	29.33	53.5	0.0	13.00	-137.0	0	75.0	25.4	28.4	0	0	0	0	0	26.3	27.8	0.0
2019 02/15 03:15	22.2	99.0	230.0	18.1	29.33	53.5	-0.3	12.99	-137.0	0	75.0	25.4	28.6	0	0	0	0	0	26.3	27.8	0.0
2019 02/15 03:30	22.2	98.9	201.4	22.1	29.34	53.5	0.0	12.99	-137.0	0	-997.0	-996.0	28.2	0	0	0	0	0	26.3	27.8	0.0
2019 02/15 03:45	22.1	98.9	210.8	20.2	29.34	53.5	0.0	12.99	-137.0	0	74.7	25.4	28.1	0	0	0	0	0	26.3	27.8	0.0
2019 02/15 04:00	22.1	98.8	225.7	16.1	29.34	53.5	0.0	12.99	-137.0	0	75.0	25.4	28.1	0	0	0	0	0	26.3	27.8	0.0
2019 02/15 04:15	21.9	98.9	220.3	17.8	29.35	53.6	0.0	12.99	-137.0	0	75.2	25.4	28.7	0	0	0	0	0	26.3	27.8	0.0
2019 02/15 04:30	21.9	98.9	211.1	19.2	29.35	53.7	0.0	12.99	-137.0	0	-997.0	-996.0	28.7	0	0	0	0	0	26.3	27.8	0.0
2019 02/15 04:45	21.9	98.9	227.2	22.9	29.35	53.7	-0.3	13.00	-137.0	0	74.8	25.4	28.4	0	0	0	0	0	26.3	27.8	0.0
2019 02/15 05:00	21.9	98.8	216.6	19.6	29.35	53.7	0.0	12.99	-137.0	0	74.7	25.4	28.5	0	0	0	0	0	26.3	27.8	0.0
2019 02/15 05:15	21.8	98.7	194.8	23.5	29.36	53.7	0.0	12.99	-137.0	0	74.8	25.4	28.4	0	0	0	0	0	26.3	27.8	0.0
2019 02/15 05:30	21.8	98.7	208.2	26.0	29.36	53.6	0.0	12.98	-137.0	0	-997.0	-996.0	28.2	0	0	0	0	0	26.3	27.8	0.0
2019 02/15 05:45	21.8	98.7	204.5	23.4	29.37	53.5	0.0	13.01	-137.0	0	75.3	24.5	28.2	0	0	0	0	0	26.3	27.8	0.0
2019 02/15 06:00	21.7	98.7	223.3	20.9	29.37	53.5	-0.3	12.99	-137.0	0	74.8	24.5	28.0	0	0	0	0	0	26.3	27.8	0.0
2019 02/15 06:15	21.7	98.5	205.0	22.8	29.37	53.5	0.0	12.99	-137.0	0	75.1	24.5	28.5	0	0	0	0	0	26.3	27.8	0.0
2019 02/15 06:30	21.6	98.7	232.3	28.0	29.37	53.5	0.7	13.01	-137.1	0	-997.0	-996.0	28.8	0	0	0	0	0	26.3	27.8	0.0
2019 02/15 06:45	21.6	98.6	198.3	26.6	29.37	53.4	8.8	13.01	-137.1	0	75.4	24.5	28.6	0	0	0	0	0	26.3	27.8	0.0
2019 02/15 07:00	21.6	98.5	183.9	31.9	29.37	53.3	107.2	12.99	-137.1	0	75.4	24.5	28.4	0	0	0	0	0	26.3	27.8	0.0
2019 02/15 07:15	21.6	98.7	230.1	31.3	29.38	53.3	289.1	12.99	-137.1	0	75.4	24.5	28.0	0	0	0	0	0	26.3	27.8	0.0
2019 02/15 07:30	21.4	98.7	240.9	28.5	29.39	53.1	513.3	12.99	-137.1	0	-997.0	-996.0	28.8	0	0	0	0	0	26.3	27.8	0.0
2019 02/15 07:45	21.4	98.5	225.1	27.4	29.39	53.1	566.6	12.99	-137.1	0	76.1	24.5	28.5	0	0	0	0	0	26.3	27.8	0.0
2019 02/15 08:00	21.6	98.5	234.3	30.5	29.39	53.1	589.3	12.99	-137.1	0	75.7	24.5	28.9	0	0	0	0	0	26.3	27.8	0.0
2019 02/15 08:15	21.7	98.6	232.3	32.0	29.40	53.1	725.0	12.98	-137.1	0	75.6	25.4	28.5	0	0	0	0	0	26.3	27.8	0.0
2019 02/15 08:30	21.9	98.7	228.5	32.4	29.41	53.0	781.0	12.98	-137.1	0	-997.0	-996.0	29.0	0	0	0	0	0	26.3	27.8	0.0
2019 02/15 08:45	22.4	98.7	211.2	34.2	29.41	52.9	822.0	12.99	-137.1	0	75.8	26.3	30.6	0	0	0	0	0	26.3	27.8	0.0
2019 02/15 09:00	23.1	99.0	237.5	26.0	29.42	52.9	830.0	13.01	-137.1	0	75.7	26.3	31.4	0	0	0	0	0	26.3	27.8	0.0
2019 02/15 09:15	24.0	99.8	236.2	36.4	29.42	52.9	843.0	12.98	-137.1	0	76.0	26.3	31.6	0	0	0	0	0	26.3	27.8	0.0
2019 02/15 09:30	24.4	99.5	233.4	33.2	29.43	52.9	814.0	12.98	-137.1	0	-997.0	-996.0	31.5	0	0	0	0	0	26.3	27.8	0.0
2019 02/15 09:45	24.5	99.7	232.3	30.9	29.44	52.9	782.0	13.01	-137.1	0	76.2	26.3	32.2	0	0	0	0	0	26.3	27.8	0.0
2019 02/15 10:00	24.4	99.7	243.3	33.6	29.45	52.9	897.0	13.00	-137.1	0	75.7	26.3	33.1	0	0	0	0	0	26.3	27.8	0.0
2019 02/15 10:15	24.9	99.7	242.0	34.8	29.46	52.9	866.0	12.99	-137.1	0	76.4	26.3	32.8	0	0	0	0	0	26.3	27.8	0.0
2019 02/15 10:30	25.6	100.1	228.0	40.4	29.46	52.9	851.0	12.99	-137.1	0	-997.0	-996.0	33.0	0	0	0	0	0	26.3	27.8	0.0
2019 02/15 10:45	25.8	100.8	239.5	39.8	29.46	52.9	860.0	12.98	-137.1	0	76.3	27.2	32.6	0	0	0	0	0	26.3	27.8	0.0
2019 02/15 11:00	26.2	100.4	226.1	33.3	29.48	52.6	853.0	12.99	-137.1	0	75.6	27.2	32.8	0	0	0	0	0	26.3	27.8	0.0
2019 02/15 11:15	26.1	100.4	238.6	29.2	29.49	52.4	854.0	12.99	-137.2	0	75.4	26.3	33.0	0	0	0	0	0	26.3	27.8	0.0
2019 02/15 11:30	25.9	100.5	239.3	23.9	29.49	52.2	881.0	13.00	-137.2	0	-997.0	-996.0	34.3	0	0	0	0	0	26.3	27.8	0.0
2019 02/15 11:45	26.4	100.6	207.2	24.9	29.49	52.1	875.0	13.01	-137.2	0	74.2	29.0	35.3	0	0	0	0	0	26.3	27.8	0.0
2019 02/15 12:00	27.1	100.7	232.0	27.3	29.50	52.0	881.0	12.99	-137.2	0	74.6	28.1	35.2	0	0	0	0	0	26.3	27.8	0.0
2019 02/15 12:15	27.5	100.8	237.3	26.0	29.49	52.0	897.0	13.01	-137.2	0	75.4	28.1	36.6	0	0	0	0	0	26.3	27.8	0.0
2019 02/15 12:30	28.1	101.2	235.6	31.9	29.49	52.0	887.0	13.00	-137.2	0	-997.0	-996.0	34.6	0	0	0	0	0	26.3	27.8	0.0
2019 02/15 12:45	28.3	101.0	220.5	28.1	29.48	51.9	856.0	13.00	-137.2	0	75.8	28.1	33.6	0	0	0	0	0	26.3	27.8	0.0
2019 02/15 13:00	28.0	101.2	224.6	34.2	29.48	51.9	864.0	13.00	-137.2	0	75.4	29.9	33.6	0	0	0	0	0	26.3	27.8	0.0
2019 02/15 13:15	27.9	101.2	225.1	32.4	29.48	52.0	874.0	12.99	-137.2	0	75.5	29.0	34.8	0	0	0	0	0	26.3	27.8	0.0
2019 02/15 13:30	27.5	101.2	206.4	30.7	29.49	52.0	852.0	13.01	-137.2	0	-997.0	-996.0	35.0	0	0	0	0	0	26.3	27.8	0.0
2019 02/15 13:45	27.1	101.0	222.5	28.9	29.49	52.0	858.0	13.01	-137.2	0	75.6	29.0	35.2	0	0	0	0	0	26.3	27.8	0.0
2019 02/15 14:00	26.8	101.1	231.1	23.1	29.49	52.0	837.0	12.98	-137.2	0	75.7	29.0	35.2	0	0	0	0	0	26.3	27.8	0.0
2019 02/15 14:15	26.6	101.0	232.3	26.2	29.49	52.2	837.0	12.99	-137.2	0	75.4	28.1	35.0	0	0	0	0	0	26.3	27.8	0.0
2019 02/15 14:30	26.4	100.8	216.3	26.7	29.49	52.2	833.0	13.01	-137.2	0	-997.0	-996.0	33.2	0	0	0	0	0	26.3	27.8	0.0
2019 02/15 14:45	26.3	100.8	194.9	29.2	29.50	52.4	840.0	12.99	-137.2	0	75.7	29.0	33.0	0	0	0	0	0	26.3	27.8	0.0
2019 02/15 15:00	26.2	100.8	213.5	31.6	29.50	52.4	860.0	12.99	-137.2	0	75.2	29.9	34.6	0	0	0	0	0	26.3	27.8	0.0
2019 02/15 15:15	26.3	100.9	215.5	22.7	29.62	52.4	815.0	12.96	-137.2	0	75.9	29.0	33.9	0	0	0	0	0	26.3	27.8	0.0
2019 02/15 15:30	26.2	100.7	220.1	27.9	29.50	52.4	793.0	13.00	-137.1	0	-997.0	-996.0	33.6	0	0	0	0	0	26.3	27.8	0.0
2019 02/15 15:45	25.7	100.6	213.3	29.1	29.50	52.4	782.0	13.00	-137.2	0	75.2	28.1	33.1	0	0	0	0	0	26.3	27.8	0.0
2019 02/15 16:00	25.2	100.3	214.1	31.8	29.50	52.4	741.0	12.99	-137.2	0	75.0	28.1	32.4	0	0	0	0	0	26.3	27.8	0.0
2019 02/15 16:15	24.9	100.3	200.4	36.2	29.50	52.3	700.0	12.99	-137.2	0	144.8	28.1	33.2	0	0	0	0	0	26.3	27.8	0.0
2019 02/15 16:30	24.4	100.2	213.4	34.8	29.50	52.2	660.9	12.98	-137.2	0	-997.0	-996.0	32.4	0	0	0	0	0	26.3	27.8	0.0
2019 02/15 16:45	24.0	99.9	200.1	32.0	29.50	51.9	587.6	13.01	-137.2	0	74.4	26.3	31.3	0	0	0	0	0	26.3	27.8	0.0
2019 02/15 17:00	23.8	99.7	207.5	28.1	29.51	51.6	545.9	13.01	-137.2	0	90.9	26.3	32.2	0	0	0	0	0	26.3	27.8	0.0
2019 02/15 17:15	23.5	99.5	214.7	28.5	29.50	51.6	428.5	12.97	-137.2	0	145.2	26.3	31.2	0	0	0	0	0	26.3	27.8	0.0
2019 02/15 17:30	23.4	100.4	158.3	28.1	29.50	51.4	244.6	12.99	-137.2	0	-997.0	-996.0	30.5	0	0	0	0	0	26.3	27.8	0.0
2019 02/15 17:45	23.1	99.5	212.6	27.9	29.49	51.4	66.5	13.00	-137.2	0	127.6	26.3	31.8	0	0	0	0	0	26.3	27.8	0.0
2019 02/15 18:00	22.9	99.4	209.4	29.4	29.49	51.3	5.4	12.99	-137.2	0	-999.9	26.3	31.7	0	0	0	0	0	26.3	27.8	0.0
2019 02/15 18:15	22.8	99.3	206.4	28.2	29.50	51.1	0.3	13.01	-137.3	0	145.6	26.3	31.3	0	0	0	0	0	26.3	27.8	0.0
2019 02/15 18:30	22.5	99.2	203.9	25.1	29.50	51.1	0.0	13.00	-137.3	0	-997.0	-996.0	30.5	0	0	0	0	0	26.3	27.8	0.0
2019 02/15 18:45	22.5	99.1	219.7	35.9	29.49	51.1	0.3	13.00	-137.3	0	91.1	26.3	30.8	0	0	0	0	0	26.3	27.8	0.0
2019 02/15 19:00	22.4	98.9	214.2	28.5	29.50	51.1	0.0	13.00	-137.3	0	91.0	25.4	30.4	0	0	0	0	0	26.3	27.8	0.0
2019 02/15 19:15	22.3	99.0	213.4	28.4	29.49	51.1	0.3	13.00	-137.3	0	108.3	26.3	30.2	0	0	0	0	0	26.3	27.8	0.0
2019 02/15 19:30	22.3	98.8	194.3	34.8	29.48	50.9	0.0	12.99	-137.3	0	-997.0	-996.0	30.2	0	0	0	0	0	26.3	27.8	0.0
2019 02/15 19:45	22.2	98.9	210.5	41.3	29.47	50.9	0.0	12.98	-137.3	0	-999.9	26.3	29.9	0	0	0	0	0	26.3	27.8	0.0
2019 02/15 20:00	22.1	98.9	213.6	40.5	29.47	50.7	0.0	12.99	-137.3	0	91.0	26.3	30.5	0	0	0	0	0	26.3	27.8	0.0
2019 02/15 20:15	22.1	98.9	191.4	27.3	29.48	50.5	0.3	12.98	-137.3	0	145.0	25.4	29.8	0	0	0	0	0	26.3	27.8	0.0
2019 02/15 20:30	22.1	99.1	210.7	27.3	29.48	50.5	0.0	12.97	-137.3	0	-997.0	-996.0	29.3	0	0	0	0	0	26.3	27.8	0.0
2019 02/15 20:45	22.1	98.9	199.7	35.8	29.47	50.4	0.0	12.99	-137.3	0	77.5	25.4	29.7	0	0	0	0	0	26.3	27.8	0.0
2019 02/15 21:00	22.1	98.7	204.0	35.9	29.46	50.3	0.0	12.98	-137.3	0	90.9	25.4	30.2	0	0	0	0	0	26.3	27.8	0.0
2019 02/15 21:15	22.1	98.7	204.1	38.7	29.46	50.1	0.3	12.98	-137.3	0	77.3	25.4	29.6	0	0	0	0	0	26.3	27.8	0.0
2019 02/15 21:30	22.1	98.7	217.1	37.5	29.46	49.9	5.4	12.99	-137.3	0	-997.0	-996.0	29.9	0	0	0	0	0	26.3	27.8	0.0
2019 02/15 21:45	22.1	98.9	216.3	36.5	29.46	49.7	0.0	12.99	-137.3	0	-999.9	-999.9	29.1	0	0	0	0	0	26.3	27.8	0.0
2019 02/15 22:00	22.1	98.8	233.0	34.9	29.46	49.6	0.0	13.00	-137.3	0	77.6	25.4	28.9	0	0	0	0	0	26.3	27.8	0.0
2019 02/15 22:15	22.1	98.8	195.5	40.8	29.45	49.4	0.0	13.00	-137.3	0	77.2	25.4	29.1	0	0	0	0	0	26.3	27.8	0.0
2019 02/15 22:30	22.1	98.7	241.1	33.3	29.46	49.2	0.3	13.00	-137.5	0	-997.0	-996.0	28.8	0	0	0	0	0	26.3	27.8	0.0
2019 02/15 22:45	22.1	98.8	244.2	33.5	29.45	49.2	0.0	13.00	-137.5	0	76.3	25.4	29.3	0	0	0	0	0	26.3	27.8	0.0
2019 02/15 23:00	22.3	98.9	231.2	33.8	29.46	49.2	0.0	12.99	-137.5	0	77.6	25.4	30.0	0	0	0	0	0	26.3	27.8	0.0
2019 02/15 23:15	22.2	98.8	200.3	31.1	29.46	49.2	0.0	13.00	-137.5	0	77.7	25.4	29.1	0	0	0	0	0	26.3	27.8	0.0
2019 02/15 23:30	22.2	98.8	238.3	31.5	29.46	49.3	0.0	12.98	-137.5	0	-997.0	-996.0	29.0	0	0	0	0	0	26.3	27.8	0.0
2019 02/15 23:45	22.2	98.8	221.8	31.9	29.47	49.5	0.0	13.01	-137.5	0	77.6	25.4	28.5	0	0	0	0	0	26.3	27.8	0.0
2019 02/16 00:00	22.1	98.9	225.0	29.8	29.48	49.5	0.0	13.00	-137.5	0	77.6	25.4	28.8	0	0	0	0	0	26.3	27.8	0.0
2019 02/16 00:15	22.1	98.7	249.4	24.8	29.48	49.7	0.0	12.98	-137.5	0	76.0	25.4	29.1	0	0	0	0	0	26.3	27.8	0.0
2019 02/16 00:30	22.1	98.7	238.2	27.8	29.49	49.8	0.0	12.99	-137.3	0	-997.0	-996.0	28.6	0	0	0	0	0	26.3	27.8	0.0
2019 02/16 00:45	22.1	98.8	236.5	32.2	29.49	49.9	-0.3	12.98	-137.3	0	76.9	25.4	28.4	0	0	0	0	0	26.3	27.8	0.0
2019 02/16 01:00	22.2	98.8	256.2	34.0	29.49	50.1	0.0	13.00	-137.3	0	78.1	25.4	28.6	0	0	0	0	0	26.3	27.8	0.0
2019 02/16 01:15	22.2	98.8	225.8	35.5	29.49	50.1	0.0	13.00	-137.3	0	78.3	25.4	28.4	0	0	0	0	0	26.3	27.8	0.0
2019 02/16 01:30	22.2	98.9	227.2	34.9	29.50	50.3	0.0	13.00	-137.3	0	-997.0	-996.0	28.2	0	0	0	0	0	26.3	27.8	0.0
2019 02/16 01:45	22.3	98.9	226.8	34.8	29.50	50.3	0.0	12.98	-137.3	0	78.0	25.4	28.2	0	0	0	0	0	26.3	27.8	0.0
2019 02/16 02:00	22.2	98.8	242.2	32.8	29.51	50.4	0.0	12.98	-137.3	0	77.2	25.4	28.4	0	0	0	0	0	26.3	27.8	0.0
2019 02/16 02:15	22.5	98.9	229.2	29.3	29.52	50.5	0.0	13.01	-137.3	0	78.3	25.4	28.0	0	0	0	0	0	26.3	27.8	0.0
2019 02/16 02:30	22.1	98.8	222.5	32.2	29.52	50.5	0.0	12.99	-137.3	0	-997.0	-996.0	28.0	0	0	0	0	0	26.3	27.8	0.0
2019 02/16 02:45	21.9	98.7	241.2	33.6	29.52	50.5	0.0	12.98	-137.3	0	78.6	25.4	27.9	0	0	0	0	0	26.3	27.8	0.0
2019 02/16 03:00	21.8	98.7	236.9	32.7	29.52	50.7	-0.3	12.99	-137.3	0	78.8	24.5	27.9	0	0	0	0	0	26.3	27.8	0.0
2019 02/16 03:15	21.8	98.8	237.1	31.6	29.52	50.7	-0.3	13.01	-137.3	0	78.9	24.5	27.9	0	0	0	0	0	26.3	27.8	0.0
2019 02/16 03:30	21.7	98.7	230.7	34.0	29.53	50.7	0.0	12.99	-137.3	0	-997.0	-996.0	27.9	0	0	0	0	0	26.3	27.8	0.0
2019 02/16 03:45	21.6	98.7	238.8	37.6	29.52	50.7	-0.3	13.01	-137.3	0	78.9	24.5	27.8	0	0	0	0	0	26.3	27.8	0.0
2019 02/16 04:00	21.6	98.5	214.5	34.6	29.53	50.7	-0.3	13.00	-137.3	0	79.2	24.5	27.9	0	0	0	0	0	26.3	27.8	0.0
2019 02/16 04:15	21.4	98.6	223.3	33.6	29.53	50.7	0.0	12.98	-137.3	0	-999.9	-999.9	27.8	0	0	0	0	0	26.3	27.8	0.0
2019 02/16 04:30	21.8	98.6	224.8	33.8	29.53	50.7	0.0	12.99	-137.3	0	-997.0	-996.0	27.5	0	0	0	0	0	26.3	27.8	0.0
2019 02/16 04:45	21.4	98.4	216.2	33.6	29.53	50.7	-0.3	12.97	-137.3	0	79.5	24.5	27.7	0	0	0	0	0	26.3	27.8	0.0
2019 02/16 05:00	21.4	98.5	218.0	32.6	29.54	50.7	0.0	12.98	-137.3	0	-999.9	-999.9	27.7	0	0	0	0	0	26.3	27.8	0.0
2019 02/16 05:15	21.4	98.4	251.5	27.4	29.55	50.7	-0.3	13.00	-137.3	0	80.1	24.5	27.7	0	0	0	0	0	26.3	27.8	0.0
2019 02/16 05:30	21.4	98.5	229.3	27.9	29.55	50.7	10.9	12.98	-137.3	0	-997.0	-996.0	28.0	0	0	0	0	0	26.3	27.8	0.0
2019 02/16 05:45	21.4	98.4	246.6	28.1	29.56	50.8	-0.3	12.97	-137.3	0	80.2	24.5	28.1	0	0	0	0	0	26.3	27.8	0.0
2019 02/16 06:00	21.4	98.6	282.7	27.3	29.56	50.9	0.0	12.99	-137.3	0	79.9	24.5	28.7	0	0	0	0	0	26.3	27.8	0.0
2019 02/16 06:15	21.4	98.9	272.5	27.4	29.55	50.9	0.0	12.98	-137.3	0	80.2	24.5	28.8	0	0	0	0	0	26.3	27.8	0.0
2019 02/16 06:30	21.4	98.5	204.5	28.7	29.55	51.1	0.3	13.01	-137.3	0	-997.0	-996.0	28.6	0	0	0	0	0	26.3	27.8	0.0
2019 02/16 06:45	21.3	98.5	299.0	24.1	29.56	51.1	8.1	12.98	-137.3	0	79.9	24.5	29.0	0	0	0	0	0	26.3	27.8	0.0
2019 02/16 07:00	21.3	98.5	281.3	18.9	29.57	51.4	104.5	12.99	-137.3	0	80.0	24.5	29.7	0	0	0	0	0	26.3	27.8	0.0
2019 02/16 07:15	21.3	99.0	235.0	24.8	29.57	51.4	256.8	12.98	-137.3	0	80.0	24.5	29.7	0	0	0	0	0	26.3	27.8	0.0
2019 02/16 07:30	21.3	98.4	264.1	25.6	29.59	51.6	331.5	12.98	-137.2	0	-997.0	-996.0	29.8	0	0	0	0	0	26.3	27.8	0.0
2019 02/16 07:45	21.3	98.6	244.2	23.2	29.60	51.6	454.3	13.01	-137.2	0	80.4	24.5	29.3	0	0	0	0	0	26.3	27.8	0.0
2019 02/16 08:00	21.3	98.3	228.8	25.6	29.60	51.8	484.8	12.99	-137.2	0	79.8	24.5	29.7	0	0	0	0	0	26.3	27.8	0.0
2019 02/16 08:15	21.4	98.5	253.2	25.8	29.61	51.8	576.8	13.00	-137.2	0	80.0	24.5	29.4	0	0	0	0	0	26.3	27.8	0.0
2019 02/16 08:30	21.4	98.6	246.7	25.3	29.62	51.9	588.0	12.98	-137.2	0	-997.0	-996.0	29.8	0	0	0	0	0	26.3	27.8	0.0
2019 02/16 08:45	21.6	98.7	246.0	24.1	29.63	52.0	627.3	13.01	-137.2	0	80.4	24.5	30.5	0	0	0	0	0	26.3	27.8	0.0
2019 02/16 09:00	21.6	98.6	241.2	22.7	29.64	52.0	657.5	13.00	-137.2	0	81.1	24.5	31.1	0	0	0	0	0	26.3	27.8	0.0
2019 02/16 09:15	21.7	98.7	218.8	24.8	29.64	52.1	673.8	12.98	-137.2	0	81.2	24.5	30.7	0	0	0	0	0	26.3	27.8	0.0
2019 02/16 09:30	21.7	98.7	241.6	26.8	29.64	52.1	724.0	12.98	-137.2	0	-997.0	-996.0	30.2	0	0	0	0	0	26.3	27.8	0.0
2019 02/16 09:45	21.7	98.5	245.0	27.8	29.65	52.1	785.0	12.98	-137.2	0	80.8	24.5	30.5	0	0	0	0	0	26.3	27.8	0.0
2019 02/16 10:00	21.9	98.7	241.6	27.8	29.66	52.2	803.0	12.99	-137.2	0	79.9	24.5	30.7	0	0	0	0	0	26.3	27.8	0.0
2019 02/16 10:15	22.2	98.6	229.4	28.7	29.66	52.2	840.0	12.99	-137.2	0	81.3	24.5	31.3	0	0	0	0	0	26.3	27.8	0.0
2019 02/16 10:30	22.4	98.9	221.7	28.2	29.66	52.2	820.0	13.00	-137.2	0	-997.0	-996.0	31.3	0	0	0	0	0	26.3	27.8	0.0
2019 02/16 10:45	22.8	99.1	246.6	24.9	29.67	52.2	854.0	13.00	-137.2	0	81.8	25.4	31.4	0	0	0	0	0	26.3	27.8	0.0
2019 02/16 11:00	23.0	99.1	244.1	29.3	29.67	52.3	849.0	12.99	-137.2	0	82.5	24.5	31.5	0	0	0	0	0	26.3	27.8	0.0
2019 02/16 11:15	23.1	99.3	242.9	28.5	29.68	52.4	856.0	13.01	-137.2	0	82.0	25.4	32.2	0	0	0	0	0	26.3	27.8	0.0
2019 02/16 11:30	23.4	99.4	236.7	28.4	29.68	52.4	860.0	13.01	-137.2	0	82.3	25.4	33.2	0	0	0	0	0	26.3	27.8	0.0
2019 02/16 11:45	23.5	99.5	287.7	24.7	29.69	52.5	871.0	12.99	-137.2	0	90.9	25.4	33.6	0	0	0	0	0	26.3	27.8	0.0
2019 02/16 12:00	23.9	99.7	243.2	23.9	29.68	52.6	869.0	13.01	-137.2	0	82.8	26.3	34.0	0	0	0	0	0	26.3	27.8	0.0
2019 02/16 12:15	24.5	99.9	238.5	26.4	29.69	52.6	869.0	12.99	-137.2	0	82.2	25.4	34.3	0	0	0	0	0	26.3	27.8	0.0
2019 02/16 12:30	24.6	100.1	251.4	23.5	29.69	52.9	880.0	13.00	-137.2	0	91.2	25.4	33.4	0	0	0	0	0	26.3	27.8	0.0
2019 02/16 12:45	24.9	100.5	270.6	32.6	29.68	52.9	875.0	12.98	-137.2	0	82.2	26.3	34.4	0	0	0	0	0	26.3	27.8	0.0
2019 02/16 13:00	25.1	100.7	216.7	27.2	29.68	53.1	867.0	12.99	-137.1	0	82.6	25.4	34.3	0	0	0	0	0	26.3	27.8	0.0
2019 02/16 13:15	25.2	100.4	241.0	30.2	29.68	53.3	877.0	12.99	-137.1	0	82.2	26.3	34.1	0	0	0	0	0	26.3	27.8	0.0
2019 02/16 13:30	25.1	100.4	240.4	30.7	29.69	53.4	864.0	12.99	-137.1	0	82.1	25.4	33.2	0	0	0	0	0	26.3	27.8	0.0
2019 02/16 13:45	25.1	100.2	231.3	26.5	29.69	53.5	861.0	13.00	-137.1	0	82.6	25.4	33.7	0	0	0	0	0	26.3	27.8	0.0
2019 02/16 14:00	25.2	100.4	240.0	32.0	29.68	53.7	883.0	12.99	-137.1	0	82.4	26.3	33.7	0	0	0	0	0	26.3	27.8	0.0
2019 02/16 14:15	25.3	100.4	247.0	27.6	29.69	53.9	884.0	12.98	-137.1	0	81.8	26.3	35.1	0	0	0	0	0	26.3	27.8	0.0
2019 02/16 14:30	25.6	100.8	227.1	27.1	29.70	53.9	871.0	13.00	-137.1	0	-997.0	-996.0	35.1	0	0	0	0	0	26.3	27.8	0.0
2019 02/16 14:45	25.0	101.4	291.7	29.1	29.70	54.1	878.0	13.01	-137.0	0	82.3	27.2	35.1	0	0	0	0	0	26.3	27.8	0.0
2019 02/16 15:00	24.1	100.5	228.8	26.2	29.71	54.4	854.0	13.00	-137.0	0	82.0	26.3	34.9	0	0	0	0	0	26.3	27.8	0.0
2019 02/16 15:15	23.1	100.2	245.4	21.2	29.72	54.4	839.0	12.99	-137.0	0	82.7	25.4	32.7	0	0	0	0	0	26.3	27.8	0.0
2019 02/16 15:30	22.9	99.7	281.6	27.9	29.71	54.6	837.0	12.97	-137.0	0	-997.0	-996.0	31.5	0	0	0	0	0	26.3	27.8	0.0
2019 02/16 15:45	22.4	99.5	260.6	23.2	29.71	54.7	808.0	12.99	-137.0	0	82.5	24.5	32.6	0	0	0	0	0	26.3	27.8	0.0
2019 02/16 16:00	21.8	99.4	247.6	29.2	29.70	54.8	754.0	12.99	-137.0	0	81.8	23.6	30.5	0	0	0	0	0	26.3	27.8	0.0
2019 02/16 16:15	21.3	99.5	252.3	30.8	29.69	54.8	672.4	12.97	-137.0	0	81.7	23.6	29.4	0	0	0	0	0	26.3	27.8	0.0
2019 02/16 16:30	20.7	98.7	248.1	30.1	29.70	54.8	692.1	12.99	-137.0	0	-997.0	-996.0	29.7	0	0	0	0	0	26.3	27.8	0.0
2019 02/16 16:45	20.6	98.5	289.9	26.5	29.70	54.8	673.1	12.98	-137.0	0	127.7	23.6	28.9	0	0	0	0	0	26.3	27.8	0.0
2019 02/16 17:00	20.1	98.3	249.3	19.9	29.70	54.6	602.2	13.01	-137.0	0	91.9	22.7	29.5	0	0	0	0	0	26.3	27.8	0.0
2019 02/16 17:15	20.0	98.3	267.4	16.7	29.70	54.6	540.1	12.99	-137.0	0	145.4	21.8	30.8	0	0	0	0	0	26.3	27.8	0.0
2019 02/16 17:30	19.9	98.3	247.9	18.0	29.71	54.4	318.2	12.99	-137.0	0	-997.0	-996.0	30.0	0	0	0	0	0	26.3	27.8	0.0
2019 02/16 17:45	19.6	98.0	270.2	26.7	29.70	54.1	100.1	12.97	-137.1	0	128.3	21.8	27.9	0	0	0	0	0	26.3	27.8	0.0
2019 02/16 18:00	19.5	98.0	288.9	26.9	29.69	53.9	8.1	13.00	-137.1	0	91.7	22.7	29.6	0	0	0	0	0	26.3	27.8	0.0
2019 02/16 18:15	19.2	97.7	330.1	22.6	29.70	53.5	0.7	12.98	-137.1	0	145.7	21.8	29.7	0	0	0	0	0	26.3	27.8	0.0
2019 02/16 18:30	19.1	97.8	278.0	19.1	29.70	53.3	0.3	12.99	-137.2	0	-997.0	-996.0	29.1	0	0	0	0	0	26.3	27.8	0.0
2019 02/16 18:45	19.1	97.7	330.2	15.8	29.70	52.9	0.3	12.99	-137.2	0	91.5	22.7	28.4	0	0	0	0	0	26.3	27.8	0.0
2019 02/16 19:00	19.0	97.6	256.5	19.3	29.70	52.6	0.0	12.97	-137.2	0	92.1	21.8	28.1	0	0	0	0	0	26.3	27.8	0.0
2019 02/16 19:15	18.9	97.6	213.3	18.8	29.69	52.2	0.0	12.98	-137.2	0	82.6	21.8	28.7	0	0	0	0	0	26.3	27.8	0.0
2019 02/16 19:30	18.8	97.4	284.9	20.1	29.68	51.9	0.3	12.99	-137.3	0	-997.0	-996.0	27.9	0	0	0	0	0	26.3	27.8	0.0
2019 02/16 19:45	18.8	97.5	210.8	15.9	29.68	51.6	0.0	13.00	-137.3	0	145.9	21.8	27.5	0	0	0	0	0	26.3	27.8	0.0
2019 02/16 20:00	18.6	97.5	228.3	16.9	29.67	51.1	0.3	12.98	-137.3	0	91.5	21.8	27.8	0	0	0	0	0	26.3	27.8	0.0
2019 02/16 20:15	18.6	97.5	282.8	20.5	29.67	50.8	0.0	13.00	-137.3	0	82.1	21.8	29.1	0	0	0	0	0	26.3	27.8	0.0
2019 02/16 20:30	18.5	97.4	261.4	16.4	29.66	50.5	0.0	12.99	-137.5	0	-997.0	-996.0	26.7	0	0	0	0	0	26.3	27.8	0.0
2019 02/16 20:45	18.5	97.4	265.8	18.0	29.66	50.1	0.0	13.02	-137.5	0	82.2	21.8	29.4	0	0	0	0	0	26.3	27.8	0.0
2019 02/16 21:00	18.4	97.3	250.8	19.1	29.65	49.7	0.3	13.01	-137.5	0	82.0	21.8	27.0	0	0	0	0	0	26.3	27.8	0.0
2019 02/16 21:15	18.4	97.4	267.8	19.1	29.65	49.5	0.3	12.98	-137.5	0	81.5	21.8	27.6	0	0	0	0	0	26.3	27.8	0.0
2019 02/16 21:30	18.4	97.2	256.7	18.4	29.65	49.1	0.3	12.98	-137.5	0	-997.0	-996.0	28.5	0	0	0	0	0	26.3	27.8	0.0
2019 02/16 21:45	18.4	97.2	289.2	18.6	29.66	48.9	0.0	13.02	-137.5	0	81.4	21.8	29.0	0	0	0	0	0	26.3	27.8	0.0
2019 02/16 22:00	18.4	97.3	251.3	13.9	29.66	48.5	0.0	13.00	-137.5	0	81.7	20.9	29.4	0	0	0	0	0	26.3	27.8	0.0
2019 02/16 22:15	18.3	97.3	290.1	12.1	29.66	48.2	0.0	13.00	-137.6	0	81.5	20.9	29.4	0	0	0	0	0	26.3	27.8	0.0
2019 02/16 22:30	18.3	97.3	240.1	10.5	29.66	48.0	0.0	12.97	-137.6	0	-997.0	-996.0	27.8	0	0	0	0	0	26.3	27.8	0.0
2019 02/16 22:45	18.1	97.3	233.7	17.1	29.66	47.7	0.0	13.00	-137.6	0	81.3	20.9	27.1	0	0	0	0	0	26.3	27.8	0.0
2019 02/16 23:00	18.0	97.3	269.7	15.2	29.66	47.4	0.0	12.99	-137.6	0	81.3	20.9	27.3	0	0	0	0	0	26.3	27.8	0.0
2019 02/16 23:15	18.0	97.3	256.0	14.1	29.66	47.2	0.0	12.99	-137.6	0	81.3	20.9	26.9	0	0	0	0	0	26.3	27.8	0.0
2019 02/16 23:30	17.9	97.2	242.6	12.7	29.65	46.8	0.0	12.98	-137.6	0	-997.0	-996.0	25.5	0	0	0	0	0	26.3	27.8	0.0
2019 02/16 23:45	17.8	97.0	281.9	12.4	29.65	46.5	0.0	12.98	-137.6	0	81.2	20.9	26.0	0	0	0	0	0	26.3	27.8	0.0
2019 02/17 00:00	17.7	97.1	242.0	14.4	29.65	46.3	0.0	12.97	-137.6	0	81.1	20.9	25.5	0	0	0	0	0	26.3	27.8	0.0
2019 02/17 00:15	17.7	97.1	285.0	11.3	29.65	46.1	0.0	12.98	-137.6	0	81.1	20.9	25.3	0	0	0	0	0	26.3	27.8	0.0
2019 02/17 00:30	17.5	97.0	264.4	12.5	29.65	45.8	0.0	13.00	-137.6	0	-997.0	-996.0	25.2	0	0	0	0	0	26.3	27.8	0.0
2019 02/17 00:45	17.4	96.8	261.4	13.1	29.65	45.6	0.0	12.98	-137.6	0	81.3	20.0	24.8	0	0	0	0	0	26.3	27.8	0.0
2019 02/17 01:00	17.3	96.9	284.2	12.2	29.65	45.3	0.0	12.98	-137.6	0	81.2	19.1	23.6	0	0	0	0	0	26.3	27.8	0.0
2019 02/17 01:15	17.2	96.9	260.1	7.5	29.65	45.1	0.0	12.98	-137.6	0	81.1	19.1	23.5	0	0	0	0	0	26.3	27.8	0.0
2019 02/17 01:30	17.1	96.9	244.2	10.0	29.65	44.9	0.0	12.98	-137.6	0	-997.0	-996.0	24.1	0	0	0	0	0	26.3	27.8	0.0
2019 02/17 01:45	16.9	96.6	284.3	13.2	29.65	44.6	0.0	12.99	-137.6	0	81.1	20.0	23.5	0	0	0	0	0	26.3	27.8	0.0
2019 02/17 02:00	16.8	96.7	242.9	11.2	29.64	44.5	0.0	12.99	-137.6	0	81.0	20.0	24.0	0	0	0	0	0	26.3	27.8	0.0
2019 02/17 02:15	16.7	96.6	301.3	7.8	29.64	44.2	0.0	12.98	-137.6	0	80.9	19.1	23.5	0	0	0	0	0	26.3	27.8	0.0
2019 02/17 02:30	16.6	96.6	242.4	8.6	29.64	44.0	0.0	13.01	-137.6	0	-997.0	-996.0	23.1	0	0	0	0	0	26.3	27.8	0.0
2019 02/17 02:45	16.6	96.5	284.6	9.4	29.64	43.8	-0.3	12.98	-137.6	0	80.9	20.0	23.4	0	0	0	0	0	26.3	27.8	0.0
2019 02/17 03:00	16.4	96.4	287.3	11.4	29.64	43.6	0.0	12.98	-137.6	0	80.9	20.0	23.5	0	0	0	0	0	26.3	27.8	0.0
2019 02/17 03:15	16.4	96.5	278.6	9.1	29.64	43.5	0.0	13.00	-137.6	0	80.9	20.0	24.2	0	0	0	0	0	26.3	27.8	0.0
2019 02/17 03:30	16.3	96.5	243.2	12.1	29.63	43.2	0.0	12.98	-137.6	0	-997.0	-996.0	24.1	0	0	0	0	0	26.3	27.8	0.0
2019 02/17 03:45	16.3	96.5	233.5	11.4	29.63	43.1	0.0	12.98	-137.6	0	80.9	18.2	22.7	0	0	0	0	0	26.3	27.8	0.0
2019 02/17 04:00	16.2	96.5	243.7	12.8	29.63	42.9	0.0	13.00	-137.6	0	80.9	19.1	22.2	0	0	0	0	0	26.3	27.8	0.0
2019 02/17 04:15	16.2	96.2	265.3	10.5	29.63	42.6	0.0	13.01	-137.6	0	80.7	19.1	21.8	0	0	0	0	0	26.3	27.8	0.0
2019 02/17 04:30	16.1	96.2	261.2	12.4	29.64	42.5	0.0	12.97	-137.6	0	-997.0	-996.0	23.0	0	0	0	0	0	26.3	27.8	0.0
2019 02/17 04:45	16.0	96.5	270.2	11.9	29.63	42.3	1.0	13.00	-137.6	0	80.7	19.1	23.2	0	0	0	0	0	26.3	27.8	0.0
2019 02/17 05:00	16.0	96.2	257.2	10.8	29.64	42.2	0.0	13.00	-137.6	0	80.7	19.1	22.5	0	0	0	0	0	26.3	27.8	0.0
2019 02/17 05:15	15.8	96.5	279.8	10.8	29.64	42.0	0.0	12.98	-137.6	0	80.7	19.1	23.1	0	0	0	0	0	26.3	27.8	0.0
2019 02/17 05:30	15.8	96.2	285.0	9.3	29.64	41.9	-0.3	12.98	-137.6	0	-997.0	-996.0	23.3	0	0	0	0	0	26.3	27.8	0.0
2019 02/17 05:45	15.8	96.2	309.1	9.4	29.64	41.7	0.0	13.00	-137.6	0	80.7	19.1	24.0	0	0	0	0	0	26.3	27.8	0.0
2019 02/17 06:00	15.8	96.2	263.5	8.1	29.65	41.6	0.0	12.99	-137.6	0	80.7	19.1	25.2	0	0	0	0	0	26.3	27.8	0.0
2019 02/17 06:15	15.7	96.1	298.2	14.1	29.65	41.4	0.0	12.98	-137.6	0	80.6	19.1	26.1	0	0	0	0	0	26.3	27.8	0.0
2019 02/17 06:30	15.7	96.0	265.8	6.4	29.65	41.3	0.7	12.99	-137.6	0	-997.0	-996.0	24.5	0	0	0	0	0	26.3	27.8	0.0
2019 02/17 06:45	15.7	96.0	256.0	9.2	29.65	41.1	17.6	12.97	-137.6	0	80.6	19.1	24.9	0	0	0	0	0	26.3	27.8	0.0
2019 02/17 07:00	15.6	96.2	282.0	7.5	29.65	40.9	155.8	13.01	-137.6	0	80.5	19.1	24.3	0	0	0	0	0	26.3	27.8	0.0
2019 02/17 07:15	15.6	96.0	285.3	10.0	29.66	40.8	387.6	13.01	-137.6	0	81.3	18.2	24.4	0	0	0	0	0	26.3	27.8	0.0
2019 02/17 07:30	15.6	96.1	293.0	4.9	29.66	40.7	532.5	13.00	-137.6	0	-997.0	-996.0	23.3	0	0	0	0	0	26.3	27.8	0.0
2019 02/17 07:45	15.6	95.8	263.8	6.2	29.67	40.7	659.1	12.99	-137.6	0	80.4	19.1	25.2	0	0	0	0	0	26.3	27.8	0.0
2019 02/17 08:00	15.7	96.0	296.3	3.5	29.68	40.5	726.0	13.00	-137.6	0	80.7	19.1	24.2	0	0	0	0	0	26.3	27.8	0.0

Where:
  YYYY   = Year
  MM/DD  = Month / Date
  hh:mm  = Hour  : Minute
  Temp   = Temperature outside       (F)              @ 5720', on tower
  Humid  = Humidity    outside       (%)              @ 5720'
  W_dir  = Wind direction / Azimuth  (degrees)        @ 5720'
  W_spd  = Wind speed                (miles per hour) @ 5720'
  Barom  = Sea-level air pressure    (inches of mercury)
  T_int  = Temperature (internal)    (F)              - inside barometer case
  Light  = Outside light level       (no units)       - 0 = dark, 1000 = bright
  Power  = Power supply rail         (Volts)
  Temp2  = Temperature (back-up)     (F)
  P2     = datalogger counter channel "P2" (to be static burst counter)
  Snow   = Snow depth,  mid-mountain (inches)         @ 5010'
  T_mid  = Temperature, mid-mountain (F)              @ 5010'
  T_base = Temperature @ south lodge (F)              @ 4700'
  Precip = Precipitation total       (inches)         @ 4800' (near US20 mp81)

Notes:
1999 07/17
   Barometric data in this listing should have an additional
   temperature correction applied to it, based on the sensor's
   internal temperature:

   P_corrected = Barom + (-0.0223 * T_int) + 0.8887  (inches Hg)

2004 07/03
   The air pressure correction equation has not been checked
   in a long time.  The air pressure reading is best used only
   to observe general trends.

2006 11/18
   Added precipitation gauge.  Depth is precipitation equivalent in water,
   for the water year (beginning October 1st) at the Hogg Pass
   SnoTel station.

2011 03/11
  Fixed data column title bug from adding "T_base" after "T_mid".
  If you notice a bug like this it will get fixed a whole lot sooner
  if you tell me about it.